<?xml version="1.0" encoding="UTF-8"?><gpx xmlns="http://www.topografix.com/GPX/1/1" xmlns:xsi="http://www.w3.org/2001/XMLSchema-instance" creator="komoot gpx writer" version="1.1" xsi:schemaLocation="http://www.topografix.com/GPX/1/1 http://www.topografix.com/GPX/1/1/gpx.xsd">

	<metadata>
		<name>Tour 19.06.2014 17:20</name>
		<desc/>
		<link href="http://www.komoot.de">
			<text>komoot homepage</text>
			<type>text/html</type>
		</link>
	</metadata>
	
<trk>
<name>Tour 19.06.2014 17:20</name>
<trkseg>
<trkpt lat="51.01423263549805" lon="14.631322860717773">
<ele>469.70001220703125</ele>
<time>2014-06-19T14:29:12Z</time>
</trkpt>
<trkpt lat="51.014163970947266" lon="14.63127326965332">
<ele>447.6000061035156</ele>
<time>2014-06-19T14:29:13Z</time>
</trkpt>
<trkpt lat="51.01546859741211" lon="14.632062911987305">
<ele>459.0</ele>
<time>2014-06-19T14:30:09Z</time>
</trkpt>
<trkpt lat="51.015419006347656" lon="14.632084846496582">
<ele>458.8999938964844</ele>
<time>2014-06-19T14:30:14Z</time>
</trkpt>
<trkpt lat="51.01541519165039" lon="14.632155418395996">
<ele>458.79998779296875</ele>
<time>2014-06-19T14:30:34Z</time>
</trkpt>
<trkpt lat="51.01541519165039" lon="14.632266998291016">
<ele>458.8999938964844</ele>
<time>2014-06-19T14:30:38Z</time>
</trkpt>
<trkpt lat="51.015411376953125" lon="14.632359504699707">
<ele>458.8999938964844</ele>
<time>2014-06-19T14:30:40Z</time>
</trkpt>
<trkpt lat="51.0153923034668" lon="14.632430076599121">
<ele>459.1000061035156</ele>
<time>2014-06-19T14:30:41Z</time>
</trkpt>
<trkpt lat="51.01536560058594" lon="14.63252067565918">
<ele>458.79998779296875</ele>
<time>2014-06-19T14:30:42Z</time>
</trkpt>
<trkpt lat="51.01535415649414" lon="14.632616996765137">
<ele>458.5</ele>
<time>2014-06-19T14:30:42Z</time>
</trkpt>
<trkpt lat="51.015323638916016" lon="14.63270092010498">
<ele>458.79998779296875</ele>
<time>2014-06-19T14:30:44Z</time>
</trkpt>
<trkpt lat="51.01530838012695" lon="14.63277530670166">
<ele>459.1000061035156</ele>
<time>2014-06-19T14:30:45Z</time>
</trkpt>
<trkpt lat="51.01526641845703" lon="14.632857322692871">
<ele>459.20001220703125</ele>
<time>2014-06-19T14:30:46Z</time>
</trkpt>
<trkpt lat="51.01522445678711" lon="14.632954597473145">
<ele>460.6000061035156</ele>
<time>2014-06-19T14:30:47Z</time>
</trkpt>
<trkpt lat="51.015201568603516" lon="14.633026123046875">
<ele>460.6000061035156</ele>
<time>2014-06-19T14:30:50Z</time>
</trkpt>
<trkpt lat="51.01518249511719" lon="14.63310718536377">
<ele>460.79998779296875</ele>
<time>2014-06-19T14:30:52Z</time>
</trkpt>
<trkpt lat="51.01517868041992" lon="14.633186340332031">
<ele>460.8999938964844</ele>
<time>2014-06-19T14:30:54Z</time>
</trkpt>
<trkpt lat="51.01518249511719" lon="14.633281707763672">
<ele>461.3999938964844</ele>
<time>2014-06-19T14:30:56Z</time>
</trkpt>
<trkpt lat="51.01516342163086" lon="14.633373260498047">
<ele>460.29998779296875</ele>
<time>2014-06-19T14:30:58Z</time>
</trkpt>
<trkpt lat="51.0151481628418" lon="14.633461952209473">
<ele>460.8999938964844</ele>
<time>2014-06-19T14:30:59Z</time>
</trkpt>
<trkpt lat="51.01512908935547" lon="14.63355541229248">
<ele>460.8999938964844</ele>
<time>2014-06-19T14:31:02Z</time>
</trkpt>
<trkpt lat="51.01512145996094" lon="14.633636474609375">
<ele>461.6000061035156</ele>
<time>2014-06-19T14:31:04Z</time>
</trkpt>
<trkpt lat="51.015106201171875" lon="14.633712768554688">
<ele>461.3999938964844</ele>
<time>2014-06-19T14:31:05Z</time>
</trkpt>
<trkpt lat="51.01511764526367" lon="14.633783340454102">
<ele>460.6000061035156</ele>
<time>2014-06-19T14:31:08Z</time>
</trkpt>
<trkpt lat="51.01509475708008" lon="14.63386058807373">
<ele>460.0</ele>
<time>2014-06-19T14:31:13Z</time>
</trkpt>
<trkpt lat="51.01508331298828" lon="14.633938789367676">
<ele>459.70001220703125</ele>
<time>2014-06-19T14:31:15Z</time>
</trkpt>
<trkpt lat="51.015071868896484" lon="14.63402271270752">
<ele>459.8999938964844</ele>
<time>2014-06-19T14:31:18Z</time>
</trkpt>
<trkpt lat="51.01506805419922" lon="14.634124755859375">
<ele>460.1000061035156</ele>
<time>2014-06-19T14:31:20Z</time>
</trkpt>
<trkpt lat="51.01506042480469" lon="14.634211540222168">
<ele>460.8999938964844</ele>
<time>2014-06-19T14:31:21Z</time>
</trkpt>
<trkpt lat="51.01504898071289" lon="14.634297370910645">
<ele>462.5</ele>
<time>2014-06-19T14:31:25Z</time>
</trkpt>
<trkpt lat="51.01503372192383" lon="14.63437557220459">
<ele>463.5</ele>
<time>2014-06-19T14:31:28Z</time>
</trkpt>
<trkpt lat="51.0150260925293" lon="14.634475708007812">
<ele>465.29998779296875</ele>
<time>2014-06-19T14:31:30Z</time>
</trkpt>
<trkpt lat="51.0150260925293" lon="14.634547233581543">
<ele>464.70001220703125</ele>
<time>2014-06-19T14:31:33Z</time>
</trkpt>
<trkpt lat="51.015037536621094" lon="14.634634971618652">
<ele>466.5</ele>
<time>2014-06-19T14:31:34Z</time>
</trkpt>
<trkpt lat="51.01506042480469" lon="14.634720802307129">
<ele>466.3999938964844</ele>
<time>2014-06-19T14:31:37Z</time>
</trkpt>
<trkpt lat="51.01507568359375" lon="14.634815216064453">
<ele>465.3999938964844</ele>
<time>2014-06-19T14:31:39Z</time>
</trkpt>
<trkpt lat="51.01506805419922" lon="14.634893417358398">
<ele>465.20001220703125</ele>
<time>2014-06-19T14:31:41Z</time>
</trkpt>
<trkpt lat="51.015037536621094" lon="14.634980201721191">
<ele>465.20001220703125</ele>
<time>2014-06-19T14:31:44Z</time>
</trkpt>
<trkpt lat="51.015018463134766" lon="14.635047912597656">
<ele>465.5</ele>
<time>2014-06-19T14:31:47Z</time>
</trkpt>
<trkpt lat="51.01498794555664" lon="14.635125160217285">
<ele>465.0</ele>
<time>2014-06-19T14:31:50Z</time>
</trkpt>
<trkpt lat="51.01495361328125" lon="14.63518238067627">
<ele>466.29998779296875</ele>
<time>2014-06-19T14:31:51Z</time>
</trkpt>
<trkpt lat="51.01491928100586" lon="14.635238647460938">
<ele>466.1000061035156</ele>
<time>2014-06-19T14:31:54Z</time>
</trkpt>
<trkpt lat="51.01491928100586" lon="14.63531494140625">
<ele>467.20001220703125</ele>
<time>2014-06-19T14:31:56Z</time>
</trkpt>
<trkpt lat="51.01491928100586" lon="14.635416030883789">
<ele>467.70001220703125</ele>
<time>2014-06-19T14:31:59Z</time>
</trkpt>
<trkpt lat="51.01492691040039" lon="14.635512351989746">
<ele>468.3999938964844</ele>
<time>2014-06-19T14:32:02Z</time>
</trkpt>
<trkpt lat="51.014915466308594" lon="14.635611534118652">
<ele>466.79998779296875</ele>
<time>2014-06-19T14:32:05Z</time>
</trkpt>
<trkpt lat="51.0149040222168" lon="14.63568115234375">
<ele>467.8999938964844</ele>
<time>2014-06-19T14:32:07Z</time>
</trkpt>
<trkpt lat="51.0149040222168" lon="14.635758399963379">
<ele>467.29998779296875</ele>
<time>2014-06-19T14:32:09Z</time>
</trkpt>
<trkpt lat="51.014915466308594" lon="14.635838508605957">
<ele>467.70001220703125</ele>
<time>2014-06-19T14:32:10Z</time>
</trkpt>
<trkpt lat="51.01491928100586" lon="14.635936737060547">
<ele>469.1000061035156</ele>
<time>2014-06-19T14:32:14Z</time>
</trkpt>
<trkpt lat="51.01494598388672" lon="14.636016845703125">
<ele>469.29998779296875</ele>
<time>2014-06-19T14:32:16Z</time>
</trkpt>
<trkpt lat="51.014957427978516" lon="14.636096954345703">
<ele>469.3999938964844</ele>
<time>2014-06-19T14:32:18Z</time>
</trkpt>
<trkpt lat="51.01496124267578" lon="14.636174201965332">
<ele>470.1000061035156</ele>
<time>2014-06-19T14:32:19Z</time>
</trkpt>
<trkpt lat="51.01497268676758" lon="14.636258125305176">
<ele>471.20001220703125</ele>
<time>2014-06-19T14:32:22Z</time>
</trkpt>
<trkpt lat="51.01499557495117" lon="14.636354446411133">
<ele>472.0</ele>
<time>2014-06-19T14:32:24Z</time>
</trkpt>
<trkpt lat="51.015018463134766" lon="14.636441230773926">
<ele>471.70001220703125</ele>
<time>2014-06-19T14:32:26Z</time>
</trkpt>
<trkpt lat="51.01504898071289" lon="14.636500358581543">
<ele>471.20001220703125</ele>
<time>2014-06-19T14:32:28Z</time>
</trkpt>
<trkpt lat="51.01503372192383" lon="14.63658332824707">
<ele>470.6000061035156</ele>
<time>2014-06-19T14:32:32Z</time>
</trkpt>
<trkpt lat="51.01500701904297" lon="14.636670112609863">
<ele>467.5</ele>
<time>2014-06-19T14:32:34Z</time>
</trkpt>
<trkpt lat="51.014976501464844" lon="14.636778831481934">
<ele>466.70001220703125</ele>
<time>2014-06-19T14:32:35Z</time>
</trkpt>
<trkpt lat="51.01499557495117" lon="14.636913299560547">
<ele>467.1000061035156</ele>
<time>2014-06-19T14:32:38Z</time>
</trkpt>
<trkpt lat="51.0150260925293" lon="14.637020111083984">
<ele>467.1000061035156</ele>
<time>2014-06-19T14:32:39Z</time>
</trkpt>
<trkpt lat="51.01504135131836" lon="14.637094497680664">
<ele>467.20001220703125</ele>
<time>2014-06-19T14:32:42Z</time>
</trkpt>
<trkpt lat="51.01504898071289" lon="14.63718318939209">
<ele>469.5</ele>
<time>2014-06-19T14:32:45Z</time>
</trkpt>
<trkpt lat="51.01504135131836" lon="14.637259483337402">
<ele>471.5</ele>
<time>2014-06-19T14:32:50Z</time>
</trkpt>
<trkpt lat="51.0150146484375" lon="14.637348175048828">
<ele>471.0</ele>
<time>2014-06-19T14:32:54Z</time>
</trkpt>
<trkpt lat="51.01499938964844" lon="14.637428283691406">
<ele>471.20001220703125</ele>
<time>2014-06-19T14:32:57Z</time>
</trkpt>
<trkpt lat="51.01498794555664" lon="14.637505531311035">
<ele>472.1000061035156</ele>
<time>2014-06-19T14:33:00Z</time>
</trkpt>
<trkpt lat="51.01498794555664" lon="14.637591361999512">
<ele>473.6000061035156</ele>
<time>2014-06-19T14:33:03Z</time>
</trkpt>
<trkpt lat="51.01498031616211" lon="14.637697219848633">
<ele>474.29998779296875</ele>
<time>2014-06-19T14:33:05Z</time>
</trkpt>
<trkpt lat="51.01498031616211" lon="14.637777328491211">
<ele>473.79998779296875</ele>
<time>2014-06-19T14:33:08Z</time>
</trkpt>
<trkpt lat="51.01496505737305" lon="14.637845993041992">
<ele>472.5</ele>
<time>2014-06-19T14:33:10Z</time>
</trkpt>
<trkpt lat="51.01494598388672" lon="14.637934684753418">
<ele>471.8999938964844</ele>
<time>2014-06-19T14:33:13Z</time>
</trkpt>
<trkpt lat="51.01495361328125" lon="14.63801097869873">
<ele>473.0</ele>
<time>2014-06-19T14:33:15Z</time>
</trkpt>
<trkpt lat="51.014957427978516" lon="14.638100624084473">
<ele>470.79998779296875</ele>
<time>2014-06-19T14:33:17Z</time>
</trkpt>
<trkpt lat="51.014949798583984" lon="14.638197898864746">
<ele>467.5</ele>
<time>2014-06-19T14:33:19Z</time>
</trkpt>
<trkpt lat="51.01495361328125" lon="14.638296127319336">
<ele>466.5</ele>
<time>2014-06-19T14:33:21Z</time>
</trkpt>
<trkpt lat="51.014949798583984" lon="14.638386726379395">
<ele>465.29998779296875</ele>
<time>2014-06-19T14:33:22Z</time>
</trkpt>
<trkpt lat="51.01493835449219" lon="14.638467788696289">
<ele>464.20001220703125</ele>
<time>2014-06-19T14:33:24Z</time>
</trkpt>
<trkpt lat="51.014915466308594" lon="14.638547897338867">
<ele>463.1000061035156</ele>
<time>2014-06-19T14:33:27Z</time>
</trkpt>
<trkpt lat="51.014892578125" lon="14.638628959655762">
<ele>462.5</ele>
<time>2014-06-19T14:33:29Z</time>
</trkpt>
<trkpt lat="51.014869689941406" lon="14.638697624206543">
<ele>462.1000061035156</ele>
<time>2014-06-19T14:33:31Z</time>
</trkpt>
<trkpt lat="51.01484680175781" lon="14.638769149780273">
<ele>461.70001220703125</ele>
<time>2014-06-19T14:33:33Z</time>
</trkpt>
<trkpt lat="51.01482391357422" lon="14.638858795166016">
<ele>460.70001220703125</ele>
<time>2014-06-19T14:33:36Z</time>
</trkpt>
<trkpt lat="51.014801025390625" lon="14.638951301574707">
<ele>459.0</ele>
<time>2014-06-19T14:33:39Z</time>
</trkpt>
<trkpt lat="51.01478958129883" lon="14.639049530029297">
<ele>459.5</ele>
<time>2014-06-19T14:33:42Z</time>
</trkpt>
<trkpt lat="51.01478576660156" lon="14.63914966583252">
<ele>458.20001220703125</ele>
<time>2014-06-19T14:33:45Z</time>
</trkpt>
<trkpt lat="51.014766693115234" lon="14.639226913452148">
<ele>459.1000061035156</ele>
<time>2014-06-19T14:33:48Z</time>
</trkpt>
<trkpt lat="51.014732360839844" lon="14.639293670654297">
<ele>459.29998779296875</ele>
<time>2014-06-19T14:33:51Z</time>
</trkpt>
<trkpt lat="51.01472091674805" lon="14.639381408691406">
<ele>461.0</ele>
<time>2014-06-19T14:33:56Z</time>
</trkpt>
<trkpt lat="51.014739990234375" lon="14.639472007751465">
<ele>462.3999938964844</ele>
<time>2014-06-19T14:33:59Z</time>
</trkpt>
<trkpt lat="51.0147705078125" lon="14.639561653137207">
<ele>464.0</ele>
<time>2014-06-19T14:34:01Z</time>
</trkpt>
<trkpt lat="51.01480484008789" lon="14.639652252197266">
<ele>463.29998779296875</ele>
<time>2014-06-19T14:34:03Z</time>
</trkpt>
<trkpt lat="51.014827728271484" lon="14.639723777770996">
<ele>464.79998779296875</ele>
<time>2014-06-19T14:34:05Z</time>
</trkpt>
<trkpt lat="51.01485824584961" lon="14.63980484008789">
<ele>466.20001220703125</ele>
<time>2014-06-19T14:34:08Z</time>
</trkpt>
<trkpt lat="51.014869689941406" lon="14.639896392822266">
<ele>466.70001220703125</ele>
<time>2014-06-19T14:34:11Z</time>
</trkpt>
<trkpt lat="51.01490783691406" lon="14.639955520629883">
<ele>467.5</ele>
<time>2014-06-19T14:34:14Z</time>
</trkpt>
<trkpt lat="51.01491928100586" lon="14.640023231506348">
<ele>468.3999938964844</ele>
<time>2014-06-19T14:34:20Z</time>
</trkpt>
<trkpt lat="51.014957427978516" lon="14.64012622833252">
<ele>469.3999938964844</ele>
<time>2014-06-19T14:34:42Z</time>
</trkpt>
<trkpt lat="51.01498794555664" lon="14.64019775390625">
<ele>468.1000061035156</ele>
<time>2014-06-19T14:34:44Z</time>
</trkpt>
<trkpt lat="51.0150260925293" lon="14.640275001525879">
<ele>468.79998779296875</ele>
<time>2014-06-19T14:34:45Z</time>
</trkpt>
<trkpt lat="51.015052795410156" lon="14.640359878540039">
<ele>469.70001220703125</ele>
<time>2014-06-19T14:34:46Z</time>
</trkpt>
<trkpt lat="51.01508331298828" lon="14.640446662902832">
<ele>470.3999938964844</ele>
<time>2014-06-19T14:34:46Z</time>
</trkpt>
<trkpt lat="51.01510238647461" lon="14.64054012298584">
<ele>471.79998779296875</ele>
<time>2014-06-19T14:34:48Z</time>
</trkpt>
<trkpt lat="51.01511001586914" lon="14.640630722045898">
<ele>470.79998779296875</ele>
<time>2014-06-19T14:34:49Z</time>
</trkpt>
<trkpt lat="51.01511764526367" lon="14.640724182128906">
<ele>471.6000061035156</ele>
<time>2014-06-19T14:34:50Z</time>
</trkpt>
<trkpt lat="51.01518630981445" lon="14.641096115112305">
<ele>472.1000061035156</ele>
<time>2014-06-19T14:34:50Z</time>
</trkpt>
<trkpt lat="51.01516342163086" lon="14.641201972961426">
<ele>473.3999938964844</ele>
<time>2014-06-19T14:34:53Z</time>
</trkpt>
<trkpt lat="51.01515579223633" lon="14.641292572021484">
<ele>474.1000061035156</ele>
<time>2014-06-19T14:34:55Z</time>
</trkpt>
<trkpt lat="51.01514434814453" lon="14.641365051269531">
<ele>472.70001220703125</ele>
<time>2014-06-19T14:34:56Z</time>
</trkpt>
<trkpt lat="51.015140533447266" lon="14.641458511352539">
<ele>474.20001220703125</ele>
<time>2014-06-19T14:35:00Z</time>
</trkpt>
<trkpt lat="51.01512908935547" lon="14.641557693481445">
<ele>476.0</ele>
<time>2014-06-19T14:35:03Z</time>
</trkpt>
<trkpt lat="51.01511764526367" lon="14.641648292541504">
<ele>478.1000061035156</ele>
<time>2014-06-19T14:35:06Z</time>
</trkpt>
<trkpt lat="51.015098571777344" lon="14.641749382019043">
<ele>480.6000061035156</ele>
<time>2014-06-19T14:35:08Z</time>
</trkpt>
<trkpt lat="51.01506042480469" lon="14.641828536987305">
<ele>482.20001220703125</ele>
<time>2014-06-19T14:35:12Z</time>
</trkpt>
<trkpt lat="51.0150260925293" lon="14.641881942749023">
<ele>482.20001220703125</ele>
<time>2014-06-19T14:35:15Z</time>
</trkpt>
<trkpt lat="51.015018463134766" lon="14.641975402832031">
<ele>483.5</ele>
<time>2014-06-19T14:35:17Z</time>
</trkpt>
<trkpt lat="51.01499938964844" lon="14.642047882080078">
<ele>483.6000061035156</ele>
<time>2014-06-19T14:35:20Z</time>
</trkpt>
<trkpt lat="51.01499557495117" lon="14.64212703704834">
<ele>484.0</ele>
<time>2014-06-19T14:35:22Z</time>
</trkpt>
<trkpt lat="51.01498794555664" lon="14.642231941223145">
<ele>486.20001220703125</ele>
<time>2014-06-19T14:35:25Z</time>
</trkpt>
<trkpt lat="51.014976501464844" lon="14.642306327819824">
<ele>485.5</ele>
<time>2014-06-19T14:35:27Z</time>
</trkpt>
<trkpt lat="51.01496124267578" lon="14.642390251159668">
<ele>486.70001220703125</ele>
<time>2014-06-19T14:35:29Z</time>
</trkpt>
<trkpt lat="51.014949798583984" lon="14.642472267150879">
<ele>486.70001220703125</ele>
<time>2014-06-19T14:35:30Z</time>
</trkpt>
<trkpt lat="51.01492691040039" lon="14.64254379272461">
<ele>487.1000061035156</ele>
<time>2014-06-19T14:35:32Z</time>
</trkpt>
<trkpt lat="51.01491165161133" lon="14.64261531829834">
<ele>487.70001220703125</ele>
<time>2014-06-19T14:35:35Z</time>
</trkpt>
<trkpt lat="51.01488494873047" lon="14.642681121826172">
<ele>486.6000061035156</ele>
<time>2014-06-19T14:35:37Z</time>
</trkpt>
<trkpt lat="51.014854431152344" lon="14.64273452758789">
<ele>486.0</ele>
<time>2014-06-19T14:35:38Z</time>
</trkpt>
<trkpt lat="51.01484680175781" lon="14.642820358276367">
<ele>486.1000061035156</ele>
<time>2014-06-19T14:35:42Z</time>
</trkpt>
<trkpt lat="51.01483917236328" lon="14.642899513244629">
<ele>486.6000061035156</ele>
<time>2014-06-19T14:35:45Z</time>
</trkpt>
<trkpt lat="51.014827728271484" lon="14.642979621887207">
<ele>487.6000061035156</ele>
<time>2014-06-19T14:35:48Z</time>
</trkpt>
<trkpt lat="51.01479721069336" lon="14.643054962158203">
<ele>487.79998779296875</ele>
<time>2014-06-19T14:35:50Z</time>
</trkpt>
<trkpt lat="51.01478958129883" lon="14.643147468566895">
<ele>488.5</ele>
<time>2014-06-19T14:35:53Z</time>
</trkpt>
<trkpt lat="51.01478576660156" lon="14.643219947814941">
<ele>488.6000061035156</ele>
<time>2014-06-19T14:35:55Z</time>
</trkpt>
<trkpt lat="51.01478958129883" lon="14.643320083618164">
<ele>488.20001220703125</ele>
<time>2014-06-19T14:35:59Z</time>
</trkpt>
<trkpt lat="51.01478958129883" lon="14.643402099609375">
<ele>486.3999938964844</ele>
<time>2014-06-19T14:36:00Z</time>
</trkpt>
<trkpt lat="51.01480484008789" lon="14.643479347229004">
<ele>487.0</ele>
<time>2014-06-19T14:36:03Z</time>
</trkpt>
<trkpt lat="51.01481628417969" lon="14.64355182647705">
<ele>487.0</ele>
<time>2014-06-19T14:36:05Z</time>
</trkpt>
<trkpt lat="51.01481246948242" lon="14.643645286560059">
<ele>488.1000061035156</ele>
<time>2014-06-19T14:36:08Z</time>
</trkpt>
<trkpt lat="51.014801025390625" lon="14.643749237060547">
<ele>487.8999938964844</ele>
<time>2014-06-19T14:36:11Z</time>
</trkpt>
<trkpt lat="51.0147819519043" lon="14.643837928771973">
<ele>487.79998779296875</ele>
<time>2014-06-19T14:36:14Z</time>
</trkpt>
<trkpt lat="51.01477813720703" lon="14.643919944763184">
<ele>485.6000061035156</ele>
<time>2014-06-19T14:36:15Z</time>
</trkpt>
<trkpt lat="51.014766693115234" lon="14.643994331359863">
<ele>484.8999938964844</ele>
<time>2014-06-19T14:36:18Z</time>
</trkpt>
<trkpt lat="51.01476287841797" lon="14.64406967163086">
<ele>483.0</ele>
<time>2014-06-19T14:36:20Z</time>
</trkpt>
<trkpt lat="51.01473617553711" lon="14.644157409667969">
<ele>481.70001220703125</ele>
<time>2014-06-19T14:36:23Z</time>
</trkpt>
<trkpt lat="51.01470947265625" lon="14.644253730773926">
<ele>478.8999938964844</ele>
<time>2014-06-19T14:36:26Z</time>
</trkpt>
<trkpt lat="51.01469039916992" lon="14.644336700439453">
<ele>477.29998779296875</ele>
<time>2014-06-19T14:36:27Z</time>
</trkpt>
<trkpt lat="51.01467514038086" lon="14.644416809082031">
<ele>476.29998779296875</ele>
<time>2014-06-19T14:36:30Z</time>
</trkpt>
<trkpt lat="51.01464080810547" lon="14.644489288330078">
<ele>475.3999938964844</ele>
<time>2014-06-19T14:36:33Z</time>
</trkpt>
<trkpt lat="51.01465606689453" lon="14.644560813903809">
<ele>477.8999938964844</ele>
<time>2014-06-19T14:36:34Z</time>
</trkpt>
<trkpt lat="51.01469802856445" lon="14.6446533203125">
<ele>478.3999938964844</ele>
<time>2014-06-19T14:36:37Z</time>
</trkpt>
<trkpt lat="51.014732360839844" lon="14.644749641418457">
<ele>480.29998779296875</ele>
<time>2014-06-19T14:36:39Z</time>
</trkpt>
<trkpt lat="51.014747619628906" lon="14.64483642578125">
<ele>480.8999938964844</ele>
<time>2014-06-19T14:36:40Z</time>
</trkpt>
<trkpt lat="51.014747619628906" lon="14.644911766052246">
<ele>482.0</ele>
<time>2014-06-19T14:36:44Z</time>
</trkpt>
<trkpt lat="51.014766693115234" lon="14.644999504089355">
<ele>483.20001220703125</ele>
<time>2014-06-19T14:36:49Z</time>
</trkpt>
<trkpt lat="51.01479721069336" lon="14.645082473754883">
<ele>484.6000061035156</ele>
<time>2014-06-19T14:36:51Z</time>
</trkpt>
<trkpt lat="51.01483154296875" lon="14.645161628723145">
<ele>486.1000061035156</ele>
<time>2014-06-19T14:36:54Z</time>
</trkpt>
<trkpt lat="51.01488494873047" lon="14.645267486572266">
<ele>487.0</ele>
<time>2014-06-19T14:36:56Z</time>
</trkpt>
<trkpt lat="51.01493453979492" lon="14.645371437072754">
<ele>489.5</ele>
<time>2014-06-19T14:36:58Z</time>
</trkpt>
<trkpt lat="51.01497268676758" lon="14.645454406738281">
<ele>491.20001220703125</ele>
<time>2014-06-19T14:37:00Z</time>
</trkpt>
<trkpt lat="51.015018463134766" lon="14.645532608032227">
<ele>492.6000061035156</ele>
<time>2014-06-19T14:37:02Z</time>
</trkpt>
<trkpt lat="51.01504898071289" lon="14.64559555053711">
<ele>492.70001220703125</ele>
<time>2014-06-19T14:37:03Z</time>
</trkpt>
<trkpt lat="51.01506805419922" lon="14.645670890808105">
<ele>492.79998779296875</ele>
<time>2014-06-19T14:37:06Z</time>
</trkpt>
<trkpt lat="51.015018463134766" lon="14.645727157592773">
<ele>493.70001220703125</ele>
<time>2014-06-19T14:37:13Z</time>
</trkpt>
<trkpt lat="51.014949798583984" lon="14.645723342895508">
<ele>493.79998779296875</ele>
<time>2014-06-19T14:37:16Z</time>
</trkpt>
<trkpt lat="51.01490020751953" lon="14.645709037780762">
<ele>494.3999938964844</ele>
<time>2014-06-19T14:37:18Z</time>
</trkpt>
<trkpt lat="51.01485061645508" lon="14.645707130432129">
<ele>495.3999938964844</ele>
<time>2014-06-19T14:37:20Z</time>
</trkpt>
<trkpt lat="51.014801025390625" lon="14.645718574523926">
<ele>496.3999938964844</ele>
<time>2014-06-19T14:37:22Z</time>
</trkpt>
<trkpt lat="51.01475524902344" lon="14.645723342895508">
<ele>496.8999938964844</ele>
<time>2014-06-19T14:37:23Z</time>
</trkpt>
<trkpt lat="51.01469802856445" lon="14.645723342895508">
<ele>496.1000061035156</ele>
<time>2014-06-19T14:37:26Z</time>
</trkpt>
<trkpt lat="51.01464080810547" lon="14.645719528198242">
<ele>495.8999938964844</ele>
<time>2014-06-19T14:37:27Z</time>
</trkpt>
<trkpt lat="51.014583587646484" lon="14.645722389221191">
<ele>494.6000061035156</ele>
<time>2014-06-19T14:37:30Z</time>
</trkpt>
<trkpt lat="51.01453399658203" lon="14.64572811126709">
<ele>495.0</ele>
<time>2014-06-19T14:37:32Z</time>
</trkpt>
<trkpt lat="51.01448440551758" lon="14.645732879638672">
<ele>494.6000061035156</ele>
<time>2014-06-19T14:37:34Z</time>
</trkpt>
<trkpt lat="51.014427185058594" lon="14.645729064941406">
<ele>495.79998779296875</ele>
<time>2014-06-19T14:37:36Z</time>
</trkpt>
<trkpt lat="51.014381408691406" lon="14.645711898803711">
<ele>495.6000061035156</ele>
<time>2014-06-19T14:37:39Z</time>
</trkpt>
<trkpt lat="51.014339447021484" lon="14.645676612854004">
<ele>494.8999938964844</ele>
<time>2014-06-19T14:37:43Z</time>
</trkpt>
<trkpt lat="51.01428985595703" lon="14.645648002624512">
<ele>495.29998779296875</ele>
<time>2014-06-19T14:37:46Z</time>
</trkpt>
<trkpt lat="51.01423645019531" lon="14.645638465881348">
<ele>496.20001220703125</ele>
<time>2014-06-19T14:37:49Z</time>
</trkpt>
<trkpt lat="51.01418685913086" lon="14.645635604858398">
<ele>497.20001220703125</ele>
<time>2014-06-19T14:37:51Z</time>
</trkpt>
<trkpt lat="51.014129638671875" lon="14.645634651184082">
<ele>497.6000061035156</ele>
<time>2014-06-19T14:37:56Z</time>
</trkpt>
<trkpt lat="51.014068603515625" lon="14.645633697509766">
<ele>498.20001220703125</ele>
<time>2014-06-19T14:38:00Z</time>
</trkpt>
<trkpt lat="51.01401901245117" lon="14.645611763000488">
<ele>498.70001220703125</ele>
<time>2014-06-19T14:38:03Z</time>
</trkpt>
<trkpt lat="51.01396179199219" lon="14.645581245422363">
<ele>498.3999938964844</ele>
<time>2014-06-19T14:38:06Z</time>
</trkpt>
<trkpt lat="51.013916015625" lon="14.645552635192871">
<ele>498.3999938964844</ele>
<time>2014-06-19T14:38:07Z</time>
</trkpt>
<trkpt lat="51.01386642456055" lon="14.64552116394043">
<ele>498.20001220703125</ele>
<time>2014-06-19T14:38:09Z</time>
</trkpt>
<trkpt lat="51.01381301879883" lon="14.645500183105469">
<ele>498.1000061035156</ele>
<time>2014-06-19T14:38:12Z</time>
</trkpt>
<trkpt lat="51.01375961303711" lon="14.645480155944824">
<ele>498.3999938964844</ele>
<time>2014-06-19T14:38:13Z</time>
</trkpt>
<trkpt lat="51.013710021972656" lon="14.645454406738281">
<ele>497.29998779296875</ele>
<time>2014-06-19T14:38:17Z</time>
</trkpt>
<trkpt lat="51.01366424560547" lon="14.64542007446289">
<ele>496.20001220703125</ele>
<time>2014-06-19T14:38:19Z</time>
</trkpt>
<trkpt lat="51.013607025146484" lon="14.645414352416992">
<ele>496.5</ele>
<time>2014-06-19T14:38:22Z</time>
</trkpt>
<trkpt lat="51.0135498046875" lon="14.645381927490234">
<ele>496.0</ele>
<time>2014-06-19T14:38:26Z</time>
</trkpt>
<trkpt lat="51.01350402832031" lon="14.645358085632324">
<ele>496.6000061035156</ele>
<time>2014-06-19T14:38:27Z</time>
</trkpt>
<trkpt lat="51.013450622558594" lon="14.64531421661377">
<ele>496.6000061035156</ele>
<time>2014-06-19T14:38:31Z</time>
</trkpt>
<trkpt lat="51.01340866088867" lon="14.645272254943848">
<ele>494.5</ele>
<time>2014-06-19T14:38:34Z</time>
</trkpt>
<trkpt lat="51.01335906982422" lon="14.645275115966797">
<ele>496.5</ele>
<time>2014-06-19T14:38:38Z</time>
</trkpt>
<trkpt lat="51.013309478759766" lon="14.64526081085205">
<ele>494.79998779296875</ele>
<time>2014-06-19T14:38:42Z</time>
</trkpt>
<trkpt lat="51.013248443603516" lon="14.645233154296875">
<ele>494.70001220703125</ele>
<time>2014-06-19T14:38:44Z</time>
</trkpt>
<trkpt lat="51.01320266723633" lon="14.645196914672852">
<ele>495.1000061035156</ele>
<time>2014-06-19T14:38:48Z</time>
</trkpt>
<trkpt lat="51.01316452026367" lon="14.645147323608398">
<ele>494.6000061035156</ele>
<time>2014-06-19T14:38:51Z</time>
</trkpt>
<trkpt lat="51.013118743896484" lon="14.645119667053223">
<ele>495.5</ele>
<time>2014-06-19T14:38:54Z</time>
</trkpt>
<trkpt lat="51.01305389404297" lon="14.64510726928711">
<ele>495.8999938964844</ele>
<time>2014-06-19T14:38:58Z</time>
</trkpt>
<trkpt lat="51.01300048828125" lon="14.645105361938477">
<ele>496.20001220703125</ele>
<time>2014-06-19T14:39:00Z</time>
</trkpt>
<trkpt lat="51.01295471191406" lon="14.64510726928711">
<ele>495.5</ele>
<time>2014-06-19T14:39:02Z</time>
</trkpt>
<trkpt lat="51.01290512084961" lon="14.645106315612793">
<ele>496.20001220703125</ele>
<time>2014-06-19T14:39:03Z</time>
</trkpt>
<trkpt lat="51.01285171508789" lon="14.645109176635742">
<ele>496.0</ele>
<time>2014-06-19T14:39:06Z</time>
</trkpt>
<trkpt lat="51.01280212402344" lon="14.64511489868164">
<ele>496.20001220703125</ele>
<time>2014-06-19T14:39:08Z</time>
</trkpt>
<trkpt lat="51.01274108886719" lon="14.645126342773438">
<ele>496.29998779296875</ele>
<time>2014-06-19T14:39:09Z</time>
</trkpt>
<trkpt lat="51.01267623901367" lon="14.645142555236816">
<ele>497.1000061035156</ele>
<time>2014-06-19T14:39:12Z</time>
</trkpt>
<trkpt lat="51.01260757446289" lon="14.645162582397461">
<ele>497.1000061035156</ele>
<time>2014-06-19T14:39:14Z</time>
</trkpt>
<trkpt lat="51.012542724609375" lon="14.64518928527832">
<ele>497.1000061035156</ele>
<time>2014-06-19T14:39:15Z</time>
</trkpt>
<trkpt lat="51.01247787475586" lon="14.645212173461914">
<ele>495.6000061035156</ele>
<time>2014-06-19T14:39:17Z</time>
</trkpt>
<trkpt lat="51.01243209838867" lon="14.645230293273926">
<ele>495.5</ele>
<time>2014-06-19T14:39:20Z</time>
</trkpt>
<trkpt lat="51.01238250732422" lon="14.645244598388672">
<ele>495.5</ele>
<time>2014-06-19T14:39:22Z</time>
</trkpt>
<trkpt lat="51.01233673095703" lon="14.645264625549316">
<ele>495.6000061035156</ele>
<time>2014-06-19T14:39:24Z</time>
</trkpt>
<trkpt lat="51.012271881103516" lon="14.645313262939453">
<ele>494.20001220703125</ele>
<time>2014-06-19T14:39:27Z</time>
</trkpt>
<trkpt lat="51.012203216552734" lon="14.645353317260742">
<ele>491.3999938964844</ele>
<time>2014-06-19T14:39:28Z</time>
</trkpt>
<trkpt lat="51.01213836669922" lon="14.645374298095703">
<ele>490.8999938964844</ele>
<time>2014-06-19T14:39:30Z</time>
</trkpt>
<trkpt lat="51.0120735168457" lon="14.645387649536133">
<ele>488.8999938964844</ele>
<time>2014-06-19T14:39:34Z</time>
</trkpt>
<trkpt lat="51.012020111083984" lon="14.645400047302246">
<ele>487.1000061035156</ele>
<time>2014-06-19T14:39:35Z</time>
</trkpt>
<trkpt lat="51.01197052001953" lon="14.645407676696777">
<ele>486.3999938964844</ele>
<time>2014-06-19T14:39:38Z</time>
</trkpt>
<trkpt lat="51.01191711425781" lon="14.645421028137207">
<ele>484.5</ele>
<time>2014-06-19T14:39:41Z</time>
</trkpt>
<trkpt lat="51.01185607910156" lon="14.645429611206055">
<ele>483.1000061035156</ele>
<time>2014-06-19T14:39:43Z</time>
</trkpt>
<trkpt lat="51.01179504394531" lon="14.645421028137207">
<ele>480.70001220703125</ele>
<time>2014-06-19T14:39:46Z</time>
</trkpt>
<trkpt lat="51.01174545288086" lon="14.645406723022461">
<ele>480.79998779296875</ele>
<time>2014-06-19T14:39:50Z</time>
</trkpt>
<trkpt lat="51.011695861816406" lon="14.645401954650879">
<ele>483.20001220703125</ele>
<time>2014-06-19T14:39:56Z</time>
</trkpt>
<trkpt lat="51.01163864135742" lon="14.645410537719727">
<ele>482.1000061035156</ele>
<time>2014-06-19T14:39:59Z</time>
</trkpt>
<trkpt lat="51.01157760620117" lon="14.645424842834473">
<ele>483.0</ele>
<time>2014-06-19T14:40:02Z</time>
</trkpt>
<trkpt lat="51.01151657104492" lon="14.645437240600586">
<ele>482.5</ele>
<time>2014-06-19T14:40:05Z</time>
</trkpt>
<trkpt lat="51.01145935058594" lon="14.645455360412598">
<ele>481.8999938964844</ele>
<time>2014-06-19T14:40:09Z</time>
</trkpt>
<trkpt lat="51.01139450073242" lon="14.645486831665039">
<ele>483.79998779296875</ele>
<time>2014-06-19T14:40:12Z</time>
</trkpt>
<trkpt lat="51.01133728027344" lon="14.645511627197266">
<ele>486.0</ele>
<time>2014-06-19T14:40:14Z</time>
</trkpt>
<trkpt lat="51.01127624511719" lon="14.645539283752441">
<ele>487.3999938964844</ele>
<time>2014-06-19T14:40:15Z</time>
</trkpt>
<trkpt lat="51.01123046875" lon="14.645557403564453">
<ele>488.70001220703125</ele>
<time>2014-06-19T14:40:17Z</time>
</trkpt>
<trkpt lat="51.01118469238281" lon="14.64558219909668">
<ele>489.70001220703125</ele>
<time>2014-06-19T14:40:20Z</time>
</trkpt>
<trkpt lat="51.011131286621094" lon="14.6456298828125">
<ele>490.70001220703125</ele>
<time>2014-06-19T14:40:23Z</time>
</trkpt>
<trkpt lat="51.01109313964844" lon="14.645672798156738">
<ele>491.79998779296875</ele>
<time>2014-06-19T14:40:25Z</time>
</trkpt>
<trkpt lat="51.01106643676758" lon="14.645759582519531">
<ele>492.3999938964844</ele>
<time>2014-06-19T14:40:28Z</time>
</trkpt>
<trkpt lat="51.011051177978516" lon="14.645829200744629">
<ele>492.79998779296875</ele>
<time>2014-06-19T14:40:30Z</time>
</trkpt>
<trkpt lat="51.011016845703125" lon="14.645894050598145">
<ele>494.29998779296875</ele>
<time>2014-06-19T14:40:36Z</time>
</trkpt>
<trkpt lat="51.010982513427734" lon="14.645941734313965">
<ele>494.3999938964844</ele>
<time>2014-06-19T14:40:39Z</time>
</trkpt>
<trkpt lat="51.010948181152344" lon="14.646001815795898">
<ele>495.3999938964844</ele>
<time>2014-06-19T14:40:42Z</time>
</trkpt>
<trkpt lat="51.01091003417969" lon="14.646071434020996">
<ele>498.1000061035156</ele>
<time>2014-06-19T14:40:46Z</time>
</trkpt>
<trkpt lat="51.0108528137207" lon="14.646126747131348">
<ele>500.29998779296875</ele>
<time>2014-06-19T14:40:49Z</time>
</trkpt>
<trkpt lat="51.01081085205078" lon="14.646196365356445">
<ele>500.6000061035156</ele>
<time>2014-06-19T14:40:51Z</time>
</trkpt>
<trkpt lat="51.01075744628906" lon="14.646247863769531">
<ele>500.79998779296875</ele>
<time>2014-06-19T14:40:55Z</time>
</trkpt>
<trkpt lat="51.010711669921875" lon="14.646303176879883">
<ele>501.3999938964844</ele>
<time>2014-06-19T14:40:58Z</time>
</trkpt>
<trkpt lat="51.01066589355469" lon="14.646366119384766">
<ele>501.20001220703125</ele>
<time>2014-06-19T14:41:01Z</time>
</trkpt>
<trkpt lat="51.010623931884766" lon="14.646421432495117">
<ele>501.1000061035156</ele>
<time>2014-06-19T14:41:03Z</time>
</trkpt>
<trkpt lat="51.01057815551758" lon="14.64646053314209">
<ele>501.8999938964844</ele>
<time>2014-06-19T14:41:05Z</time>
</trkpt>
<trkpt lat="51.01053237915039" lon="14.646486282348633">
<ele>502.3999938964844</ele>
<time>2014-06-19T14:41:07Z</time>
</trkpt>
<trkpt lat="51.01046371459961" lon="14.646510124206543">
<ele>502.20001220703125</ele>
<time>2014-06-19T14:41:10Z</time>
</trkpt>
<trkpt lat="51.010414123535156" lon="14.646520614624023">
<ele>503.1000061035156</ele>
<time>2014-06-19T14:41:12Z</time>
</trkpt>
<trkpt lat="51.010353088378906" lon="14.64651870727539">
<ele>504.20001220703125</ele>
<time>2014-06-19T14:41:14Z</time>
</trkpt>
<trkpt lat="51.01029968261719" lon="14.646535873413086">
<ele>504.1000061035156</ele>
<time>2014-06-19T14:41:16Z</time>
</trkpt>
<trkpt lat="51.010250091552734" lon="14.646564483642578">
<ele>504.0</ele>
<time>2014-06-19T14:41:18Z</time>
</trkpt>
<trkpt lat="51.010189056396484" lon="14.6466064453125">
<ele>504.70001220703125</ele>
<time>2014-06-19T14:41:21Z</time>
</trkpt>
<trkpt lat="51.01013946533203" lon="14.646620750427246">
<ele>505.79998779296875</ele>
<time>2014-06-19T14:41:23Z</time>
</trkpt>
<trkpt lat="51.01008605957031" lon="14.64664077758789">
<ele>506.1000061035156</ele>
<time>2014-06-19T14:41:25Z</time>
</trkpt>
<trkpt lat="51.010040283203125" lon="14.646673202514648">
<ele>505.79998779296875</ele>
<time>2014-06-19T14:41:28Z</time>
</trkpt>
<trkpt lat="51.009986877441406" lon="14.646717071533203">
<ele>505.29998779296875</ele>
<time>2014-06-19T14:41:31Z</time>
</trkpt>
<trkpt lat="51.00995635986328" lon="14.646763801574707">
<ele>505.8999938964844</ele>
<time>2014-06-19T14:41:33Z</time>
</trkpt>
<trkpt lat="51.009918212890625" lon="14.646817207336426">
<ele>506.20001220703125</ele>
<time>2014-06-19T14:41:35Z</time>
</trkpt>
<trkpt lat="51.009849548339844" lon="14.646879196166992">
<ele>504.0</ele>
<time>2014-06-19T14:41:37Z</time>
</trkpt>
<trkpt lat="51.009788513183594" lon="14.646925926208496">
<ele>502.20001220703125</ele>
<time>2014-06-19T14:41:39Z</time>
</trkpt>
<trkpt lat="51.009735107421875" lon="14.646950721740723">
<ele>502.70001220703125</ele>
<time>2014-06-19T14:41:41Z</time>
</trkpt>
<trkpt lat="51.009666442871094" lon="14.64696216583252">
<ele>502.20001220703125</ele>
<time>2014-06-19T14:41:43Z</time>
</trkpt>
<trkpt lat="51.00960159301758" lon="14.646954536437988">
<ele>503.20001220703125</ele>
<time>2014-06-19T14:41:45Z</time>
</trkpt>
<trkpt lat="51.00954055786133" lon="14.646939277648926">
<ele>503.29998779296875</ele>
<time>2014-06-19T14:41:47Z</time>
</trkpt>
<trkpt lat="51.00947570800781" lon="14.646915435791016">
<ele>500.6000061035156</ele>
<time>2014-06-19T14:41:50Z</time>
</trkpt>
<trkpt lat="51.009429931640625" lon="14.646903038024902">
<ele>499.1000061035156</ele>
<time>2014-06-19T14:41:52Z</time>
</trkpt>
<trkpt lat="51.009368896484375" lon="14.646883964538574">
<ele>499.5</ele>
<time>2014-06-19T14:41:55Z</time>
</trkpt>
<trkpt lat="51.009315490722656" lon="14.646854400634766">
<ele>499.3999938964844</ele>
<time>2014-06-19T14:41:58Z</time>
</trkpt>
<trkpt lat="51.00925827026367" lon="14.646815299987793">
<ele>501.1000061035156</ele>
<time>2014-06-19T14:42:01Z</time>
</trkpt>
<trkpt lat="51.00919723510742" lon="14.646806716918945">
<ele>500.6000061035156</ele>
<time>2014-06-19T14:42:04Z</time>
</trkpt>
<trkpt lat="51.00914001464844" lon="14.646806716918945">
<ele>501.20001220703125</ele>
<time>2014-06-19T14:42:07Z</time>
</trkpt>
<trkpt lat="51.00908279418945" lon="14.646798133850098">
<ele>501.3999938964844</ele>
<time>2014-06-19T14:42:10Z</time>
</trkpt>
<trkpt lat="51.00904083251953" lon="14.646761894226074">
<ele>500.20001220703125</ele>
<time>2014-06-19T14:42:14Z</time>
</trkpt>
<trkpt lat="51.00898742675781" lon="14.646708488464355">
<ele>501.0</ele>
<time>2014-06-19T14:42:18Z</time>
</trkpt>
<trkpt lat="51.008934020996094" lon="14.646681785583496">
<ele>501.5</ele>
<time>2014-06-19T14:42:20Z</time>
</trkpt>
<trkpt lat="51.00887680053711" lon="14.64665412902832">
<ele>500.3999938964844</ele>
<time>2014-06-19T14:42:22Z</time>
</trkpt>
<trkpt lat="51.008811950683594" lon="14.646639823913574">
<ele>501.0</ele>
<time>2014-06-19T14:42:24Z</time>
</trkpt>
<trkpt lat="51.00874328613281" lon="14.64663314819336">
<ele>501.5</ele>
<time>2014-06-19T14:42:26Z</time>
</trkpt>
<trkpt lat="51.008689880371094" lon="14.646629333496094">
<ele>500.29998779296875</ele>
<time>2014-06-19T14:42:28Z</time>
</trkpt>
<trkpt lat="51.00864028930664" lon="14.646623611450195">
<ele>501.0</ele>
<time>2014-06-19T14:42:30Z</time>
</trkpt>
<trkpt lat="51.00859451293945" lon="14.64660930633545">
<ele>499.8999938964844</ele>
<time>2014-06-19T14:42:32Z</time>
</trkpt>
<trkpt lat="51.008541107177734" lon="14.64661693572998">
<ele>499.29998779296875</ele>
<time>2014-06-19T14:42:34Z</time>
</trkpt>
<trkpt lat="51.00849533081055" lon="14.646629333496094">
<ele>498.8999938964844</ele>
<time>2014-06-19T14:42:36Z</time>
</trkpt>
<trkpt lat="51.00843811035156" lon="14.646636009216309">
<ele>498.79998779296875</ele>
<time>2014-06-19T14:42:39Z</time>
</trkpt>
<trkpt lat="51.008384704589844" lon="14.646661758422852">
<ele>500.3999938964844</ele>
<time>2014-06-19T14:42:42Z</time>
</trkpt>
<trkpt lat="51.00834655761719" lon="14.646702766418457">
<ele>497.79998779296875</ele>
<time>2014-06-19T14:42:46Z</time>
</trkpt>
<trkpt lat="51.00831985473633" lon="14.646770477294922">
<ele>499.1000061035156</ele>
<time>2014-06-19T14:42:53Z</time>
</trkpt>
<trkpt lat="51.008270263671875" lon="14.646807670593262">
<ele>499.0</ele>
<time>2014-06-19T14:42:57Z</time>
</trkpt>
<trkpt lat="51.00822448730469" lon="14.646839141845703">
<ele>500.20001220703125</ele>
<time>2014-06-19T14:42:59Z</time>
</trkpt>
<trkpt lat="51.008174896240234" lon="14.646867752075195">
<ele>499.79998779296875</ele>
<time>2014-06-19T14:43:01Z</time>
</trkpt>
<trkpt lat="51.00812911987305" lon="14.646896362304688">
<ele>500.20001220703125</ele>
<time>2014-06-19T14:43:03Z</time>
</trkpt>
<trkpt lat="51.008079528808594" lon="14.646921157836914">
<ele>502.1000061035156</ele>
<time>2014-06-19T14:43:05Z</time>
</trkpt>
<trkpt lat="51.008026123046875" lon="14.646951675415039">
<ele>502.70001220703125</ele>
<time>2014-06-19T14:43:07Z</time>
</trkpt>
<trkpt lat="51.00798034667969" lon="14.646979331970215">
<ele>503.70001220703125</ele>
<time>2014-06-19T14:43:09Z</time>
</trkpt>
<trkpt lat="51.0079231262207" lon="14.647018432617188">
<ele>505.1000061035156</ele>
<time>2014-06-19T14:43:12Z</time>
</trkpt>
<trkpt lat="51.00791549682617" lon="14.647090911865234">
<ele>505.8999938964844</ele>
<time>2014-06-19T14:43:15Z</time>
</trkpt>
<trkpt lat="51.00785827636719" lon="14.6471586227417">
<ele>504.8999938964844</ele>
<time>2014-06-19T14:43:28Z</time>
</trkpt>
<trkpt lat="51.007774353027344" lon="14.647211074829102">
<ele>503.0</ele>
<time>2014-06-19T14:43:31Z</time>
</trkpt>
<trkpt lat="51.00770568847656" lon="14.647268295288086">
<ele>504.29998779296875</ele>
<time>2014-06-19T14:43:33Z</time>
</trkpt>
<trkpt lat="51.007659912109375" lon="14.647295951843262">
<ele>503.0</ele>
<time>2014-06-19T14:43:34Z</time>
</trkpt>
<trkpt lat="51.00761413574219" lon="14.647326469421387">
<ele>502.29998779296875</ele>
<time>2014-06-19T14:43:35Z</time>
</trkpt>
<trkpt lat="51.007545471191406" lon="14.647378921508789">
<ele>502.8999938964844</ele>
<time>2014-06-19T14:43:37Z</time>
</trkpt>
<trkpt lat="51.007484436035156" lon="14.647448539733887">
<ele>502.5</ele>
<time>2014-06-19T14:43:39Z</time>
</trkpt>
<trkpt lat="51.00746154785156" lon="14.6475248336792">
<ele>503.0</ele>
<time>2014-06-19T14:43:41Z</time>
</trkpt>
<trkpt lat="51.00743103027344" lon="14.647595405578613">
<ele>502.8999938964844</ele>
<time>2014-06-19T14:43:43Z</time>
</trkpt>
<trkpt lat="51.00740051269531" lon="14.647668838500977">
<ele>505.79998779296875</ele>
<time>2014-06-19T14:43:46Z</time>
</trkpt>
<trkpt lat="51.00736618041992" lon="14.647714614868164">
<ele>508.6000061035156</ele>
<time>2014-06-19T14:43:50Z</time>
</trkpt>
<trkpt lat="51.007320404052734" lon="14.64772891998291">
<ele>510.8999938964844</ele>
<time>2014-06-19T14:43:53Z</time>
</trkpt>
<trkpt lat="51.007259368896484" lon="14.647759437561035">
<ele>513.4000244140625</ele>
<time>2014-06-19T14:43:56Z</time>
</trkpt>
<trkpt lat="51.007225036621094" lon="14.647808074951172">
<ele>513.7999877929688</ele>
<time>2014-06-19T14:44:02Z</time>
</trkpt>
<trkpt lat="51.007179260253906" lon="14.647868156433105">
<ele>510.5</ele>
<time>2014-06-19T14:44:10Z</time>
</trkpt>
<trkpt lat="51.007137298583984" lon="14.647928237915039">
<ele>509.5</ele>
<time>2014-06-19T14:44:13Z</time>
</trkpt>
<trkpt lat="51.00708770751953" lon="14.64795970916748">
<ele>510.5</ele>
<time>2014-06-19T14:44:15Z</time>
</trkpt>
<trkpt lat="51.00705337524414" lon="14.648011207580566">
<ele>514.4000244140625</ele>
<time>2014-06-19T14:44:21Z</time>
</trkpt>
<trkpt lat="51.00709533691406" lon="14.648075103759766">
<ele>521.5</ele>
<time>2014-06-19T14:44:29Z</time>
</trkpt>
<trkpt lat="51.00714874267578" lon="14.648103713989258">
<ele>524.2000122070312</ele>
<time>2014-06-19T14:44:33Z</time>
</trkpt>
<trkpt lat="51.00719451904297" lon="14.6481351852417">
<ele>525.7999877929688</ele>
<time>2014-06-19T14:44:37Z</time>
</trkpt>
<trkpt lat="51.007259368896484" lon="14.64814281463623">
<ele>527.5</ele>
<time>2014-06-19T14:44:40Z</time>
</trkpt>
<trkpt lat="51.00730895996094" lon="14.648141860961914">
<ele>527.5</ele>
<time>2014-06-19T14:44:42Z</time>
</trkpt>
<trkpt lat="51.00735855102539" lon="14.64814567565918">
<ele>527.2000122070312</ele>
<time>2014-06-19T14:44:44Z</time>
</trkpt>
<trkpt lat="51.00741958618164" lon="14.648134231567383">
<ele>527.7999877929688</ele>
<time>2014-06-19T14:44:47Z</time>
</trkpt>
<trkpt lat="51.007469177246094" lon="14.6481294631958">
<ele>528.2999877929688</ele>
<time>2014-06-19T14:44:50Z</time>
</trkpt>
<trkpt lat="51.00752258300781" lon="14.648131370544434">
<ele>527.4000244140625</ele>
<time>2014-06-19T14:44:53Z</time>
</trkpt>
<trkpt lat="51.0075798034668" lon="14.648146629333496">
<ele>525.0999755859375</ele>
<time>2014-06-19T14:44:56Z</time>
</trkpt>
<trkpt lat="51.007652282714844" lon="14.648154258728027">
<ele>522.5999755859375</ele>
<time>2014-06-19T14:44:59Z</time>
</trkpt>
<trkpt lat="51.00771713256836" lon="14.648160934448242">
<ele>522.7000122070312</ele>
<time>2014-06-19T14:45:01Z</time>
</trkpt>
<trkpt lat="51.00777816772461" lon="14.648175239562988">
<ele>523.4000244140625</ele>
<time>2014-06-19T14:45:03Z</time>
</trkpt>
<trkpt lat="51.007816314697266" lon="14.64822006225586">
<ele>525.2000122070312</ele>
<time>2014-06-19T14:45:06Z</time>
</trkpt>
<trkpt lat="51.00787353515625" lon="14.648215293884277">
<ele>524.9000244140625</ele>
<time>2014-06-19T14:45:15Z</time>
</trkpt>
<trkpt lat="51.0079231262207" lon="14.648215293884277">
<ele>525.5</ele>
<time>2014-06-19T14:45:17Z</time>
</trkpt>
<trkpt lat="51.007991790771484" lon="14.648215293884277">
<ele>525.4000244140625</ele>
<time>2014-06-19T14:45:19Z</time>
</trkpt>
<trkpt lat="51.0080680847168" lon="14.64820671081543">
<ele>526.0999755859375</ele>
<time>2014-06-19T14:45:21Z</time>
</trkpt>
<trkpt lat="51.00812530517578" lon="14.648199081420898">
<ele>526.0999755859375</ele>
<time>2014-06-19T14:45:23Z</time>
</trkpt>
<trkpt lat="51.00818634033203" lon="14.648194313049316">
<ele>525.7000122070312</ele>
<time>2014-06-19T14:45:25Z</time>
</trkpt>
<trkpt lat="51.008243560791016" lon="14.648185729980469">
<ele>525.2000122070312</ele>
<time>2014-06-19T14:45:27Z</time>
</trkpt>
<trkpt lat="51.008296966552734" lon="14.648191452026367">
<ele>524.5</ele>
<time>2014-06-19T14:45:29Z</time>
</trkpt>
<trkpt lat="51.00835418701172" lon="14.648207664489746">
<ele>524.5999755859375</ele>
<time>2014-06-19T14:45:32Z</time>
</trkpt>
<trkpt lat="51.00841522216797" lon="14.648172378540039">
<ele>524.4000244140625</ele>
<time>2014-06-19T14:45:35Z</time>
</trkpt>
<trkpt lat="51.00847625732422" lon="14.648125648498535">
<ele>524.9000244140625</ele>
<time>2014-06-19T14:45:38Z</time>
</trkpt>
<trkpt lat="51.00852966308594" lon="14.6481351852417">
<ele>525.7000122070312</ele>
<time>2014-06-19T14:45:41Z</time>
</trkpt>
<trkpt lat="51.00858688354492" lon="14.64815616607666">
<ele>526.7999877929688</ele>
<time>2014-06-19T14:45:44Z</time>
</trkpt>
<trkpt lat="51.00863265991211" lon="14.64818286895752">
<ele>528.2999877929688</ele>
<time>2014-06-19T14:45:46Z</time>
</trkpt>
<trkpt lat="51.008689880371094" lon="14.64820671081543">
<ele>529.0999755859375</ele>
<time>2014-06-19T14:45:49Z</time>
</trkpt>
<trkpt lat="51.00874328613281" lon="14.648212432861328">
<ele>528.9000244140625</ele>
<time>2014-06-19T14:45:52Z</time>
</trkpt>
<trkpt lat="51.0088005065918" lon="14.648222923278809">
<ele>528.7999877929688</ele>
<time>2014-06-19T14:45:56Z</time>
</trkpt>
<trkpt lat="51.00885772705078" lon="14.648228645324707">
<ele>529.7000122070312</ele>
<time>2014-06-19T14:45:59Z</time>
</trkpt>
<trkpt lat="51.008914947509766" lon="14.648214340209961">
<ele>529.5</ele>
<time>2014-06-19T14:46:03Z</time>
</trkpt>
<trkpt lat="51.008968353271484" lon="14.648239135742188">
<ele>531.7000122070312</ele>
<time>2014-06-19T14:46:07Z</time>
</trkpt>
<trkpt lat="51.00900650024414" lon="14.648282051086426">
<ele>530.7000122070312</ele>
<time>2014-06-19T14:46:10Z</time>
</trkpt>
<trkpt lat="51.00904846191406" lon="14.648317337036133">
<ele>530.5</ele>
<time>2014-06-19T14:46:13Z</time>
</trkpt>
<trkpt lat="51.00910186767578" lon="14.648340225219727">
<ele>529.5999755859375</ele>
<time>2014-06-19T14:46:17Z</time>
</trkpt>
<trkpt lat="51.00914764404297" lon="14.648319244384766">
<ele>529.9000244140625</ele>
<time>2014-06-19T14:46:21Z</time>
</trkpt>
<trkpt lat="51.00920486450195" lon="14.648289680480957">
<ele>531.4000244140625</ele>
<time>2014-06-19T14:46:25Z</time>
</trkpt>
<trkpt lat="51.00926208496094" lon="14.648258209228516">
<ele>531.0999755859375</ele>
<time>2014-06-19T14:46:30Z</time>
</trkpt>
<trkpt lat="51.00932312011719" lon="14.648223876953125">
<ele>531.7999877929688</ele>
<time>2014-06-19T14:46:33Z</time>
</trkpt>
<trkpt lat="51.00937271118164" lon="14.648191452026367">
<ele>531.5</ele>
<time>2014-06-19T14:46:35Z</time>
</trkpt>
<trkpt lat="51.00941848754883" lon="14.648153305053711">
<ele>532.9000244140625</ele>
<time>2014-06-19T14:46:37Z</time>
</trkpt>
<trkpt lat="51.00947570800781" lon="14.64809799194336">
<ele>534.4000244140625</ele>
<time>2014-06-19T14:46:40Z</time>
</trkpt>
<trkpt lat="51.009521484375" lon="14.648083686828613">
<ele>535.2000122070312</ele>
<time>2014-06-19T14:46:43Z</time>
</trkpt>
<trkpt lat="51.00956726074219" lon="14.648077011108398">
<ele>535.7000122070312</ele>
<time>2014-06-19T14:46:48Z</time>
</trkpt>
<trkpt lat="51.00963592529297" lon="14.648085594177246">
<ele>536.0</ele>
<time>2014-06-19T14:46:51Z</time>
</trkpt>
<trkpt lat="51.00969696044922" lon="14.648076057434082">
<ele>537.0999755859375</ele>
<time>2014-06-19T14:46:54Z</time>
</trkpt>
<trkpt lat="51.00973892211914" lon="14.648070335388184">
<ele>538.0999755859375</ele>
<time>2014-06-19T14:46:56Z</time>
</trkpt>
<trkpt lat="51.00981521606445" lon="14.648087501525879">
<ele>539.4000244140625</ele>
<time>2014-06-19T14:46:58Z</time>
</trkpt>
<trkpt lat="51.0098876953125" lon="14.648112297058105">
<ele>540.0999755859375</ele>
<time>2014-06-19T14:47:00Z</time>
</trkpt>
<trkpt lat="51.00996780395508" lon="14.648139953613281">
<ele>540.0</ele>
<time>2014-06-19T14:47:02Z</time>
</trkpt>
<trkpt lat="51.010032653808594" lon="14.648175239562988">
<ele>540.5</ele>
<time>2014-06-19T14:47:04Z</time>
</trkpt>
<trkpt lat="51.01007843017578" lon="14.648201942443848">
<ele>540.5999755859375</ele>
<time>2014-06-19T14:47:05Z</time>
</trkpt>
<trkpt lat="51.0101203918457" lon="14.64822769165039">
<ele>541.5</ele>
<time>2014-06-19T14:47:08Z</time>
</trkpt>
<trkpt lat="51.01016616821289" lon="14.648262977600098">
<ele>543.7000122070312</ele>
<time>2014-06-19T14:47:17Z</time>
</trkpt>
<trkpt lat="51.01020812988281" lon="14.648295402526855">
<ele>541.9000244140625</ele>
<time>2014-06-19T14:47:29Z</time>
</trkpt>
<trkpt lat="51.0102653503418" lon="14.648322105407715">
<ele>542.5</ele>
<time>2014-06-19T14:47:33Z</time>
</trkpt>
<trkpt lat="51.010311126708984" lon="14.648348808288574">
<ele>542.9000244140625</ele>
<time>2014-06-19T14:47:36Z</time>
</trkpt>
<trkpt lat="51.01035690307617" lon="14.64837646484375">
<ele>543.7999877929688</ele>
<time>2014-06-19T14:47:40Z</time>
</trkpt>
<trkpt lat="51.010398864746094" lon="14.648408889770508">
<ele>543.7000122070312</ele>
<time>2014-06-19T14:47:45Z</time>
</trkpt>
<trkpt lat="51.01044845581055" lon="14.648446083068848">
<ele>540.7000122070312</ele>
<time>2014-06-19T14:47:50Z</time>
</trkpt>
<trkpt lat="51.010498046875" lon="14.648482322692871">
<ele>539.0999755859375</ele>
<time>2014-06-19T14:47:57Z</time>
</trkpt>
<trkpt lat="51.01055145263672" lon="14.648544311523438">
<ele>536.0</ele>
<time>2014-06-19T14:47:59Z</time>
</trkpt>
<trkpt lat="51.01059341430664" lon="14.648584365844727">
<ele>534.0</ele>
<time>2014-06-19T14:48:00Z</time>
</trkpt>
<trkpt lat="51.01063919067383" lon="14.648636817932129">
<ele>530.9000244140625</ele>
<time>2014-06-19T14:48:01Z</time>
</trkpt>
<trkpt lat="51.01083755493164" lon="14.64886474609375">
<ele>528.0</ele>
<time>2014-06-19T14:48:02Z</time>
</trkpt>
<trkpt lat="51.01090621948242" lon="14.648916244506836">
<ele>526.0</ele>
<time>2014-06-19T14:48:04Z</time>
</trkpt>
<trkpt lat="51.01094055175781" lon="14.64896297454834">
<ele>525.5</ele>
<time>2014-06-19T14:48:06Z</time>
</trkpt>
<trkpt lat="51.010990142822266" lon="14.649036407470703">
<ele>525.0</ele>
<time>2014-06-19T14:48:09Z</time>
</trkpt>
<trkpt lat="51.01103591918945" lon="14.649083137512207">
<ele>523.5999755859375</ele>
<time>2014-06-19T14:48:11Z</time>
</trkpt>
<trkpt lat="51.01108932495117" lon="14.649136543273926">
<ele>521.7999877929688</ele>
<time>2014-06-19T14:48:13Z</time>
</trkpt>
<trkpt lat="51.01113510131836" lon="14.649181365966797">
<ele>521.2000122070312</ele>
<time>2014-06-19T14:48:15Z</time>
</trkpt>
<trkpt lat="51.01117706298828" lon="14.649221420288086">
<ele>520.5</ele>
<time>2014-06-19T14:48:18Z</time>
</trkpt>
<trkpt lat="51.01121520996094" lon="14.649262428283691">
<ele>522.0</ele>
<time>2014-06-19T14:48:30Z</time>
</trkpt>
<trkpt lat="51.01129150390625" lon="14.649260520935059">
<ele>522.7000122070312</ele>
<time>2014-06-19T14:49:07Z</time>
</trkpt>
<trkpt lat="51.011573791503906" lon="14.64930534362793">
<ele>525.2000122070312</ele>
<time>2014-06-19T14:49:09Z</time>
</trkpt>
<trkpt lat="51.01184844970703" lon="14.649523735046387">
<ele>528.0</ele>
<time>2014-06-19T14:49:11Z</time>
</trkpt>
<trkpt lat="51.01189422607422" lon="14.649499893188477">
<ele>527.5</ele>
<time>2014-06-19T14:49:12Z</time>
</trkpt>
<trkpt lat="51.01194763183594" lon="14.64954948425293">
<ele>528.5</ele>
<time>2014-06-19T14:49:14Z</time>
</trkpt>
<trkpt lat="51.01199722290039" lon="14.6496000289917">
<ele>531.2000122070312</ele>
<time>2014-06-19T14:49:16Z</time>
</trkpt>
<trkpt lat="51.01203918457031" lon="14.649652481079102">
<ele>530.5</ele>
<time>2014-06-19T14:49:18Z</time>
</trkpt>
<trkpt lat="51.0120849609375" lon="14.6497163772583">
<ele>529.9000244140625</ele>
<time>2014-06-19T14:49:20Z</time>
</trkpt>
<trkpt lat="51.012123107910156" lon="14.649784088134766">
<ele>531.7999877929688</ele>
<time>2014-06-19T14:49:21Z</time>
</trkpt>
<trkpt lat="51.01216125488281" lon="14.6498384475708">
<ele>532.0</ele>
<time>2014-06-19T14:49:23Z</time>
</trkpt>
<trkpt lat="51.01220703125" lon="14.649870872497559">
<ele>535.0</ele>
<time>2014-06-19T14:49:27Z</time>
</trkpt>
<trkpt lat="51.01224136352539" lon="14.649948120117188">
<ele>536.0999755859375</ele>
<time>2014-06-19T14:49:57Z</time>
</trkpt>
<trkpt lat="51.012271881103516" lon="14.650006294250488">
<ele>538.9000244140625</ele>
<time>2014-06-19T14:50:00Z</time>
</trkpt>
<trkpt lat="51.01231002807617" lon="14.650077819824219">
<ele>543.0</ele>
<time>2014-06-19T14:50:02Z</time>
</trkpt>
<trkpt lat="51.01237106323242" lon="14.65017318725586">
<ele>543.7000122070312</ele>
<time>2014-06-19T14:50:04Z</time>
</trkpt>
<trkpt lat="51.01240539550781" lon="14.650239944458008">
<ele>543.0999755859375</ele>
<time>2014-06-19T14:50:05Z</time>
</trkpt>
<trkpt lat="51.01244354248047" lon="14.650293350219727">
<ele>542.5999755859375</ele>
<time>2014-06-19T14:50:06Z</time>
</trkpt>
<trkpt lat="51.01264190673828" lon="14.65054988861084">
<ele>542.0999755859375</ele>
<time>2014-06-19T14:50:07Z</time>
</trkpt>
<trkpt lat="51.0126838684082" lon="14.650590896606445">
<ele>541.9000244140625</ele>
<time>2014-06-19T14:50:09Z</time>
</trkpt>
<trkpt lat="51.01272964477539" lon="14.650651931762695">
<ele>543.2000122070312</ele>
<time>2014-06-19T14:50:12Z</time>
</trkpt>
<trkpt lat="51.01276779174805" lon="14.650713920593262">
<ele>544.2000122070312</ele>
<time>2014-06-19T14:50:15Z</time>
</trkpt>
<trkpt lat="51.01280212402344" lon="14.650760650634766">
<ele>545.2000122070312</ele>
<time>2014-06-19T14:50:17Z</time>
</trkpt>
<trkpt lat="51.012840270996094" lon="14.65081787109375">
<ele>546.2000122070312</ele>
<time>2014-06-19T14:50:19Z</time>
</trkpt>
<trkpt lat="51.012874603271484" lon="14.650880813598633">
<ele>546.5</ele>
<time>2014-06-19T14:50:21Z</time>
</trkpt>
<trkpt lat="51.01292419433594" lon="14.650951385498047">
<ele>546.7000122070312</ele>
<time>2014-06-19T14:50:24Z</time>
</trkpt>
<trkpt lat="51.012962341308594" lon="14.651004791259766">
<ele>546.7999877929688</ele>
<time>2014-06-19T14:50:26Z</time>
</trkpt>
<trkpt lat="51.01300048828125" lon="14.651065826416016">
<ele>547.4000244140625</ele>
<time>2014-06-19T14:50:28Z</time>
</trkpt>
<trkpt lat="51.013031005859375" lon="14.65114688873291">
<ele>548.7000122070312</ele>
<time>2014-06-19T14:50:30Z</time>
</trkpt>
<trkpt lat="51.013057708740234" lon="14.651225090026855">
<ele>549.7000122070312</ele>
<time>2014-06-19T14:50:32Z</time>
</trkpt>
<trkpt lat="51.01308059692383" lon="14.651294708251953">
<ele>550.9000244140625</ele>
<time>2014-06-19T14:50:34Z</time>
</trkpt>
<trkpt lat="51.013099670410156" lon="14.651390075683594">
<ele>551.7999877929688</ele>
<time>2014-06-19T14:50:37Z</time>
</trkpt>
<trkpt lat="51.01313018798828" lon="14.651485443115234">
<ele>552.9000244140625</ele>
<time>2014-06-19T14:50:40Z</time>
</trkpt>
<trkpt lat="51.013160705566406" lon="14.651551246643066">
<ele>555.0</ele>
<time>2014-06-19T14:50:42Z</time>
</trkpt>
<trkpt lat="51.01319885253906" lon="14.651631355285645">
<ele>556.7999877929688</ele>
<time>2014-06-19T14:50:44Z</time>
</trkpt>
<trkpt lat="51.013221740722656" lon="14.651701927185059">
<ele>557.4000244140625</ele>
<time>2014-06-19T14:50:46Z</time>
</trkpt>
<trkpt lat="51.01324462890625" lon="14.651776313781738">
<ele>559.2000122070312</ele>
<time>2014-06-19T14:50:48Z</time>
</trkpt>
<trkpt lat="51.01327133178711" lon="14.651849746704102">
<ele>560.0</ele>
<time>2014-06-19T14:50:50Z</time>
</trkpt>
<trkpt lat="51.013301849365234" lon="14.651924133300781">
<ele>561.0999755859375</ele>
<time>2014-06-19T14:50:52Z</time>
</trkpt>
<trkpt lat="51.01335525512695" lon="14.652013778686523">
<ele>563.5999755859375</ele>
<time>2014-06-19T14:50:54Z</time>
</trkpt>
<trkpt lat="51.013397216796875" lon="14.65211009979248">
<ele>565.2999877929688</ele>
<time>2014-06-19T14:50:56Z</time>
</trkpt>
<trkpt lat="51.013427734375" lon="14.652190208435059">
<ele>566.4000244140625</ele>
<time>2014-06-19T14:50:58Z</time>
</trkpt>
<trkpt lat="51.01346969604492" lon="14.652287483215332">
<ele>564.7999877929688</ele>
<time>2014-06-19T14:50:59Z</time>
</trkpt>
<trkpt lat="51.01346206665039" lon="14.652358055114746">
<ele>561.4000244140625</ele>
<time>2014-06-19T14:51:01Z</time>
</trkpt>
<trkpt lat="51.013458251953125" lon="14.652429580688477">
<ele>565.2000122070312</ele>
<time>2014-06-19T14:51:05Z</time>
</trkpt>
<trkpt lat="51.013423919677734" lon="14.652366638183594">
<ele>561.7000122070312</ele>
<time>2014-06-19T14:51:15Z</time>
</trkpt>
<trkpt lat="51.013404846191406" lon="14.652294158935547">
<ele>562.9000244140625</ele>
<time>2014-06-19T14:51:20Z</time>
</trkpt>
<trkpt lat="51.01338577270508" lon="14.652225494384766">
<ele>560.7000122070312</ele>
<time>2014-06-19T14:51:22Z</time>
</trkpt>
<trkpt lat="51.01337814331055" lon="14.652146339416504">
<ele>561.0</ele>
<time>2014-06-19T14:51:24Z</time>
</trkpt>
<trkpt lat="51.01335525512695" lon="14.65207290649414">
<ele>560.9000244140625</ele>
<time>2014-06-19T14:51:29Z</time>
</trkpt>
<trkpt lat="51.01335525512695" lon="14.651981353759766">
<ele>558.9000244140625</ele>
<time>2014-06-19T14:51:32Z</time>
</trkpt>
<trkpt lat="51.01332473754883" lon="14.651930809020996">
<ele>559.5</ele>
<time>2014-06-19T14:51:37Z</time>
</trkpt>
<trkpt lat="51.013362884521484" lon="14.651860237121582">
<ele>557.5</ele>
<time>2014-06-19T14:51:44Z</time>
</trkpt>
<trkpt lat="51.01340866088867" lon="14.651875495910645">
<ele>557.4000244140625</ele>
<time>2014-06-19T14:51:46Z</time>
</trkpt>
<trkpt lat="51.01345443725586" lon="14.651926040649414">
<ele>558.2000122070312</ele>
<time>2014-06-19T14:51:51Z</time>
</trkpt>
<trkpt lat="51.01352310180664" lon="14.651983261108398">
<ele>559.7000122070312</ele>
<time>2014-06-19T14:51:53Z</time>
</trkpt>
<trkpt lat="51.01357650756836" lon="14.652029037475586">
<ele>559.5</ele>
<time>2014-06-19T14:51:56Z</time>
</trkpt>
<trkpt lat="51.013614654541016" lon="14.652070999145508">
<ele>560.0999755859375</ele>
<time>2014-06-19T14:51:57Z</time>
</trkpt>
<trkpt lat="51.01365661621094" lon="14.652139663696289">
<ele>560.7999877929688</ele>
<time>2014-06-19T14:52:01Z</time>
</trkpt>
<trkpt lat="51.013694763183594" lon="14.65218448638916">
<ele>559.9000244140625</ele>
<time>2014-06-19T14:52:03Z</time>
</trkpt>
<trkpt lat="51.013736724853516" lon="14.652229309082031">
<ele>560.7999877929688</ele>
<time>2014-06-19T14:52:04Z</time>
</trkpt>
<trkpt lat="51.013771057128906" lon="14.652295112609863">
<ele>561.2999877929688</ele>
<time>2014-06-19T14:52:08Z</time>
</trkpt>
<trkpt lat="51.01382827758789" lon="14.652356147766113">
<ele>561.5999755859375</ele>
<time>2014-06-19T14:52:10Z</time>
</trkpt>
<trkpt lat="51.01387023925781" lon="14.652396202087402">
<ele>561.5999755859375</ele>
<time>2014-06-19T14:52:14Z</time>
</trkpt>
<trkpt lat="51.013916015625" lon="14.652444839477539">
<ele>561.4000244140625</ele>
<time>2014-06-19T14:52:17Z</time>
</trkpt>
<trkpt lat="51.01395797729492" lon="14.65247631072998">
<ele>561.2000122070312</ele>
<time>2014-06-19T14:52:23Z</time>
</trkpt>
<trkpt lat="51.014007568359375" lon="14.6525297164917">
<ele>561.2999877929688</ele>
<time>2014-06-19T14:52:29Z</time>
</trkpt>
<trkpt lat="51.01407241821289" lon="14.652608871459961">
<ele>561.4000244140625</ele>
<time>2014-06-19T14:52:31Z</time>
</trkpt>
<trkpt lat="51.0141487121582" lon="14.652685165405273">
<ele>562.0999755859375</ele>
<time>2014-06-19T14:52:33Z</time>
</trkpt>
<trkpt lat="51.01418685913086" lon="14.65274715423584">
<ele>561.4000244140625</ele>
<time>2014-06-19T14:52:35Z</time>
</trkpt>
<trkpt lat="51.01422119140625" lon="14.652799606323242">
<ele>560.7000122070312</ele>
<time>2014-06-19T14:52:37Z</time>
</trkpt>
<trkpt lat="51.0142936706543" lon="14.65286636352539">
<ele>559.5999755859375</ele>
<time>2014-06-19T14:52:39Z</time>
</trkpt>
<trkpt lat="51.01433563232422" lon="14.652899742126465">
<ele>558.7999877929688</ele>
<time>2014-06-19T14:52:40Z</time>
</trkpt>
<trkpt lat="51.01438522338867" lon="14.652946472167969">
<ele>559.7000122070312</ele>
<time>2014-06-19T14:52:41Z</time>
</trkpt>
<trkpt lat="51.014427185058594" lon="14.652992248535156">
<ele>559.7999877929688</ele>
<time>2014-06-19T14:52:42Z</time>
</trkpt>
<trkpt lat="51.01447677612305" lon="14.653036117553711">
<ele>558.2999877929688</ele>
<time>2014-06-19T14:52:43Z</time>
</trkpt>
<trkpt lat="51.0145149230957" lon="14.653081893920898">
<ele>559.0999755859375</ele>
<time>2014-06-19T14:52:44Z</time>
</trkpt>
<trkpt lat="51.01456069946289" lon="14.65312671661377">
<ele>558.5</ele>
<time>2014-06-19T14:52:45Z</time>
</trkpt>
<trkpt lat="51.01460266113281" lon="14.653172492980957">
<ele>558.2000122070312</ele>
<time>2014-06-19T14:52:46Z</time>
</trkpt>
<trkpt lat="51.0146484375" lon="14.653217315673828">
<ele>558.5</ele>
<time>2014-06-19T14:52:47Z</time>
</trkpt>
<trkpt lat="51.01469039916992" lon="14.653261184692383">
<ele>557.2999877929688</ele>
<time>2014-06-19T14:52:48Z</time>
</trkpt>
<trkpt lat="51.014766693115234" lon="14.653340339660645">
<ele>558.0999755859375</ele>
<time>2014-06-19T14:52:50Z</time>
</trkpt>
<trkpt lat="51.01482009887695" lon="14.65340805053711">
<ele>557.4000244140625</ele>
<time>2014-06-19T14:52:52Z</time>
</trkpt>
<trkpt lat="51.01485824584961" lon="14.653473854064941">
<ele>558.5</ele>
<time>2014-06-19T14:52:54Z</time>
</trkpt>
<trkpt lat="51.014896392822266" lon="14.653536796569824">
<ele>557.9000244140625</ele>
<time>2014-06-19T14:52:56Z</time>
</trkpt>
<trkpt lat="51.014915466308594" lon="14.653603553771973">
<ele>556.7999877929688</ele>
<time>2014-06-19T14:52:58Z</time>
</trkpt>
<trkpt lat="51.014930725097656" lon="14.65367317199707">
<ele>557.4000244140625</ele>
<time>2014-06-19T14:53:00Z</time>
</trkpt>
<trkpt lat="51.01493453979492" lon="14.65377426147461">
<ele>557.2999877929688</ele>
<time>2014-06-19T14:53:02Z</time>
</trkpt>
<trkpt lat="51.01494216918945" lon="14.653843879699707">
<ele>557.5999755859375</ele>
<time>2014-06-19T14:53:04Z</time>
</trkpt>
<trkpt lat="51.01496887207031" lon="14.653908729553223">
<ele>559.4000244140625</ele>
<time>2014-06-19T14:53:06Z</time>
</trkpt>
<trkpt lat="51.01500701904297" lon="14.653969764709473">
<ele>559.5999755859375</ele>
<time>2014-06-19T14:53:08Z</time>
</trkpt>
<trkpt lat="51.015045166015625" lon="14.654038429260254">
<ele>559.2000122070312</ele>
<time>2014-06-19T14:53:11Z</time>
</trkpt>
<trkpt lat="51.01507568359375" lon="14.654123306274414">
<ele>559.5</ele>
<time>2014-06-19T14:53:13Z</time>
</trkpt>
<trkpt lat="51.01510238647461" lon="14.654215812683105">
<ele>560.2999877929688</ele>
<time>2014-06-19T14:53:14Z</time>
</trkpt>
<trkpt lat="51.01511001586914" lon="14.654291152954102">
<ele>560.2000122070312</ele>
<time>2014-06-19T14:53:17Z</time>
</trkpt>
<trkpt lat="51.015113830566406" lon="14.654366493225098">
<ele>560.5</ele>
<time>2014-06-19T14:53:24Z</time>
</trkpt>
<trkpt lat="51.01511764526367" lon="14.654458045959473">
<ele>560.0</ele>
<time>2014-06-19T14:53:30Z</time>
</trkpt>
<trkpt lat="51.01512908935547" lon="14.654603958129883">
<ele>561.2999877929688</ele>
<time>2014-06-19T14:53:33Z</time>
</trkpt>
<trkpt lat="51.015132904052734" lon="14.654681205749512">
<ele>560.7999877929688</ele>
<time>2014-06-19T14:53:34Z</time>
</trkpt>
<trkpt lat="51.01516342163086" lon="14.65477466583252">
<ele>560.2999877929688</ele>
<time>2014-06-19T14:53:35Z</time>
</trkpt>
<trkpt lat="51.01523208618164" lon="14.655153274536133">
<ele>559.9000244140625</ele>
<time>2014-06-19T14:53:36Z</time>
</trkpt>
<trkpt lat="51.015228271484375" lon="14.655231475830078">
<ele>561.7000122070312</ele>
<time>2014-06-19T14:53:37Z</time>
</trkpt>
<trkpt lat="51.0152702331543" lon="14.655282974243164">
<ele>562.7999877929688</ele>
<time>2014-06-19T14:53:38Z</time>
</trkpt>
<trkpt lat="51.01532745361328" lon="14.65534496307373">
<ele>563.0999755859375</ele>
<time>2014-06-19T14:53:39Z</time>
</trkpt>
<trkpt lat="51.015380859375" lon="14.655414581298828">
<ele>563.7000122070312</ele>
<time>2014-06-19T14:53:42Z</time>
</trkpt>
<trkpt lat="51.01542663574219" lon="14.655474662780762">
<ele>563.0</ele>
<time>2014-06-19T14:53:44Z</time>
</trkpt>
<trkpt lat="51.01546859741211" lon="14.655522346496582">
<ele>563.7999877929688</ele>
<time>2014-06-19T14:53:45Z</time>
</trkpt>
<trkpt lat="51.0155143737793" lon="14.655577659606934">
<ele>564.5999755859375</ele>
<time>2014-06-19T14:53:49Z</time>
</trkpt>
<trkpt lat="51.01553726196289" lon="14.655649185180664">
<ele>562.0999755859375</ele>
<time>2014-06-19T14:53:51Z</time>
</trkpt>
<trkpt lat="51.01557540893555" lon="14.655713081359863">
<ele>561.2000122070312</ele>
<time>2014-06-19T14:53:55Z</time>
</trkpt>
<trkpt lat="51.0156135559082" lon="14.655767440795898">
<ele>563.0999755859375</ele>
<time>2014-06-19T14:53:59Z</time>
</trkpt>
<trkpt lat="51.015625" lon="14.655856132507324">
<ele>558.2999877929688</ele>
<time>2014-06-19T14:54:05Z</time>
</trkpt>
<trkpt lat="51.015647888183594" lon="14.655939102172852">
<ele>558.0999755859375</ele>
<time>2014-06-19T14:54:09Z</time>
</trkpt>
<trkpt lat="51.015655517578125" lon="14.656014442443848">
<ele>556.2999877929688</ele>
<time>2014-06-19T14:54:12Z</time>
</trkpt>
<trkpt lat="51.01565170288086" lon="14.656100273132324">
<ele>556.2999877929688</ele>
<time>2014-06-19T14:54:16Z</time>
</trkpt>
<trkpt lat="51.01567459106445" lon="14.656172752380371">
<ele>557.0</ele>
<time>2014-06-19T14:54:23Z</time>
</trkpt>
<trkpt lat="51.01568603515625" lon="14.656267166137695">
<ele>552.4000244140625</ele>
<time>2014-06-19T14:54:35Z</time>
</trkpt>
<trkpt lat="51.015663146972656" lon="14.656366348266602">
<ele>550.2000122070312</ele>
<time>2014-06-19T14:54:38Z</time>
</trkpt>
<trkpt lat="51.01565170288086" lon="14.656436920166016">
<ele>548.2999877929688</ele>
<time>2014-06-19T14:54:39Z</time>
</trkpt>
<trkpt lat="51.0156364440918" lon="14.656523704528809">
<ele>544.5</ele>
<time>2014-06-19T14:54:40Z</time>
</trkpt>
<trkpt lat="51.015625" lon="14.656611442565918">
<ele>543.2000122070312</ele>
<time>2014-06-19T14:54:41Z</time>
</trkpt>
<trkpt lat="51.0156364440918" lon="14.656709671020508">
<ele>541.0</ele>
<time>2014-06-19T14:54:44Z</time>
</trkpt>
<trkpt lat="51.015682220458984" lon="14.656672477722168">
<ele>541.5999755859375</ele>
<time>2014-06-19T14:54:48Z</time>
</trkpt>
<trkpt lat="51.01570129394531" lon="14.65660285949707">
<ele>538.5999755859375</ele>
<time>2014-06-19T14:54:50Z</time>
</trkpt>
<trkpt lat="51.015750885009766" lon="14.656567573547363">
<ele>539.9000244140625</ele>
<time>2014-06-19T14:54:54Z</time>
</trkpt>
<trkpt lat="51.01580810546875" lon="14.656548500061035">
<ele>539.5</ele>
<time>2014-06-19T14:54:56Z</time>
</trkpt>
<trkpt lat="51.0158576965332" lon="14.656535148620605">
<ele>539.0</ele>
<time>2014-06-19T14:54:57Z</time>
</trkpt>
<trkpt lat="51.01590347290039" lon="14.65651798248291">
<ele>539.0</ele>
<time>2014-06-19T14:54:59Z</time>
</trkpt>
<trkpt lat="51.015953063964844" lon="14.656490325927734">
<ele>538.9000244140625</ele>
<time>2014-06-19T14:55:01Z</time>
</trkpt>
<trkpt lat="51.0160026550293" lon="14.656452178955078">
<ele>538.4000244140625</ele>
<time>2014-06-19T14:55:04Z</time>
</trkpt>
<trkpt lat="51.01604080200195" lon="14.656403541564941">
<ele>538.5</ele>
<time>2014-06-19T14:55:06Z</time>
</trkpt>
<trkpt lat="51.016082763671875" lon="14.656353950500488">
<ele>537.5999755859375</ele>
<time>2014-06-19T14:55:08Z</time>
</trkpt>
<trkpt lat="51.016136169433594" lon="14.656291961669922">
<ele>536.5999755859375</ele>
<time>2014-06-19T14:55:10Z</time>
</trkpt>
<trkpt lat="51.01617431640625" lon="14.656244277954102">
<ele>536.2000122070312</ele>
<time>2014-06-19T14:55:12Z</time>
</trkpt>
<trkpt lat="51.0162239074707" lon="14.65622329711914">
<ele>537.7000122070312</ele>
<time>2014-06-19T14:55:18Z</time>
</trkpt>
<trkpt lat="51.01627731323242" lon="14.656192779541016">
<ele>539.7999877929688</ele>
<time>2014-06-19T14:55:21Z</time>
</trkpt>
<trkpt lat="51.016334533691406" lon="14.656147956848145">
<ele>538.5</ele>
<time>2014-06-19T14:55:24Z</time>
</trkpt>
<trkpt lat="51.016395568847656" lon="14.656075477600098">
<ele>537.2000122070312</ele>
<time>2014-06-19T14:55:26Z</time>
</trkpt>
<trkpt lat="51.01644515991211" lon="14.656002044677734">
<ele>535.5999755859375</ele>
<time>2014-06-19T14:55:28Z</time>
</trkpt>
<trkpt lat="51.0164794921875" lon="14.655935287475586">
<ele>534.7000122070312</ele>
<time>2014-06-19T14:55:30Z</time>
</trkpt>
<trkpt lat="51.01652526855469" lon="14.655869483947754">
<ele>532.7999877929688</ele>
<time>2014-06-19T14:55:32Z</time>
</trkpt>
<trkpt lat="51.0165901184082" lon="14.655818939208984">
<ele>531.2000122070312</ele>
<time>2014-06-19T14:55:36Z</time>
</trkpt>
<trkpt lat="51.016639709472656" lon="14.655791282653809">
<ele>529.7000122070312</ele>
<time>2014-06-19T14:55:37Z</time>
</trkpt>
<trkpt lat="51.01668930053711" lon="14.655771255493164">
<ele>526.7999877929688</ele>
<time>2014-06-19T14:55:40Z</time>
</trkpt>
<trkpt lat="51.0167350769043" lon="14.655731201171875">
<ele>526.5</ele>
<time>2014-06-19T14:55:42Z</time>
</trkpt>
<trkpt lat="51.01677703857422" lon="14.655685424804688">
<ele>525.7000122070312</ele>
<time>2014-06-19T14:55:44Z</time>
</trkpt>
<trkpt lat="51.01682662963867" lon="14.655614852905273">
<ele>520.7999877929688</ele>
<time>2014-06-19T14:55:46Z</time>
</trkpt>
<trkpt lat="51.016868591308594" lon="14.655572891235352">
<ele>517.7000122070312</ele>
<time>2014-06-19T14:55:48Z</time>
</trkpt>
<trkpt lat="51.01690673828125" lon="14.65553092956543">
<ele>516.7000122070312</ele>
<time>2014-06-19T14:55:50Z</time>
</trkpt>
<trkpt lat="51.01694869995117" lon="14.655496597290039">
<ele>516.0999755859375</ele>
<time>2014-06-19T14:55:52Z</time>
</trkpt>
<trkpt lat="51.016990661621094" lon="14.6554594039917">
<ele>514.7999877929688</ele>
<time>2014-06-19T14:55:54Z</time>
</trkpt>
<trkpt lat="51.01703643798828" lon="14.655409812927246">
<ele>513.0999755859375</ele>
<time>2014-06-19T14:55:57Z</time>
</trkpt>
<trkpt lat="51.01708221435547" lon="14.65536117553711">
<ele>514.0</ele>
<time>2014-06-19T14:55:59Z</time>
</trkpt>
<trkpt lat="51.01713562011719" lon="14.655316352844238">
<ele>514.2999877929688</ele>
<time>2014-06-19T14:56:01Z</time>
</trkpt>
<trkpt lat="51.01718521118164" lon="14.655275344848633">
<ele>513.9000244140625</ele>
<time>2014-06-19T14:56:03Z</time>
</trkpt>
<trkpt lat="51.01723098754883" lon="14.655231475830078">
<ele>512.5</ele>
<time>2014-06-19T14:56:05Z</time>
</trkpt>
<trkpt lat="51.01728057861328" lon="14.655191421508789">
<ele>511.70001220703125</ele>
<time>2014-06-19T14:56:09Z</time>
</trkpt>
<trkpt lat="51.017330169677734" lon="14.655149459838867">
<ele>510.79998779296875</ele>
<time>2014-06-19T14:56:14Z</time>
</trkpt>
<trkpt lat="51.01736831665039" lon="14.655111312866211">
<ele>510.5</ele>
<time>2014-06-19T14:56:16Z</time>
</trkpt>
<trkpt lat="51.01740264892578" lon="14.655065536499023">
<ele>508.5</ele>
<time>2014-06-19T14:56:21Z</time>
</trkpt>
<trkpt lat="51.017459869384766" lon="14.655040740966797">
<ele>508.70001220703125</ele>
<time>2014-06-19T14:56:26Z</time>
</trkpt>
<trkpt lat="51.017513275146484" lon="14.65501880645752">
<ele>509.0</ele>
<time>2014-06-19T14:56:28Z</time>
</trkpt>
<trkpt lat="51.0175666809082" lon="14.65503215789795">
<ele>509.6000061035156</ele>
<time>2014-06-19T14:56:32Z</time>
</trkpt>
<trkpt lat="51.01762390136719" lon="14.655067443847656">
<ele>510.3999938964844</ele>
<time>2014-06-19T14:56:37Z</time>
</trkpt>
<trkpt lat="51.017696380615234" lon="14.655074119567871">
<ele>513.2999877929688</ele>
<time>2014-06-19T14:56:39Z</time>
</trkpt>
<trkpt lat="51.01774215698242" lon="14.655056953430176">
<ele>513.5</ele>
<time>2014-06-19T14:56:41Z</time>
</trkpt>
<trkpt lat="51.01780319213867" lon="14.65505313873291">
<ele>509.79998779296875</ele>
<time>2014-06-19T14:56:45Z</time>
</trkpt>
<trkpt lat="51.01785659790039" lon="14.655040740966797">
<ele>508.79998779296875</ele>
<time>2014-06-19T14:56:47Z</time>
</trkpt>
<trkpt lat="51.01791763305664" lon="14.655014991760254">
<ele>502.79998779296875</ele>
<time>2014-06-19T14:56:50Z</time>
</trkpt>
<trkpt lat="51.01797866821289" lon="14.654977798461914">
<ele>499.20001220703125</ele>
<time>2014-06-19T14:56:52Z</time>
</trkpt>
<trkpt lat="51.018062591552734" lon="14.654987335205078">
<ele>496.79998779296875</ele>
<time>2014-06-19T14:56:55Z</time>
</trkpt>
<trkpt lat="51.018123626708984" lon="14.655001640319824">
<ele>496.1000061035156</ele>
<time>2014-06-19T14:56:57Z</time>
</trkpt>
<trkpt lat="51.01816177368164" lon="14.655035972595215">
<ele>495.8999938964844</ele>
<time>2014-06-19T14:56:58Z</time>
</trkpt>
<trkpt lat="51.01820373535156" lon="14.655075073242188">
<ele>496.0</ele>
<time>2014-06-19T14:57:01Z</time>
</trkpt>
<trkpt lat="51.01818084716797" lon="14.65513801574707">
<ele>496.5</ele>
<time>2014-06-19T14:57:10Z</time>
</trkpt>
<trkpt lat="51.018131256103516" lon="14.655167579650879">
<ele>495.6000061035156</ele>
<time>2014-06-19T14:57:14Z</time>
</trkpt>
<trkpt lat="51.018089294433594" lon="14.655224800109863">
<ele>496.70001220703125</ele>
<time>2014-06-19T14:57:21Z</time>
</trkpt>
<trkpt lat="51.01803970336914" lon="14.655255317687988">
<ele>498.29998779296875</ele>
<time>2014-06-19T14:57:23Z</time>
</trkpt>
<trkpt lat="51.01798629760742" lon="14.655268669128418">
<ele>500.1000061035156</ele>
<time>2014-06-19T14:57:27Z</time>
</trkpt>
<trkpt lat="51.01792526245117" lon="14.655258178710938">
<ele>501.1000061035156</ele>
<time>2014-06-19T14:57:29Z</time>
</trkpt>
<trkpt lat="51.01786804199219" lon="14.655253410339355">
<ele>499.70001220703125</ele>
<time>2014-06-19T14:57:33Z</time>
</trkpt>
<trkpt lat="51.017822265625" lon="14.655241966247559">
<ele>499.29998779296875</ele>
<time>2014-06-19T14:57:35Z</time>
</trkpt>
<trkpt lat="51.01776885986328" lon="14.655237197875977">
<ele>500.20001220703125</ele>
<time>2014-06-19T14:57:39Z</time>
</trkpt>
<trkpt lat="51.017723083496094" lon="14.655231475830078">
<ele>500.29998779296875</ele>
<time>2014-06-19T14:57:43Z</time>
</trkpt>
<trkpt lat="51.01767349243164" lon="14.655223846435547">
<ele>504.79998779296875</ele>
<time>2014-06-19T14:57:50Z</time>
</trkpt>
<trkpt lat="51.01762390136719" lon="14.65521240234375">
<ele>507.20001220703125</ele>
<time>2014-06-19T14:57:56Z</time>
</trkpt>
<trkpt lat="51.01757049560547" lon="14.655232429504395">
<ele>508.5</ele>
<time>2014-06-19T14:58:01Z</time>
</trkpt>
<trkpt lat="51.01752471923828" lon="14.65522575378418">
<ele>508.79998779296875</ele>
<time>2014-06-19T14:58:03Z</time>
</trkpt>
<trkpt lat="51.01747131347656" lon="14.65522575378418">
<ele>509.1000061035156</ele>
<time>2014-06-19T14:58:07Z</time>
</trkpt>
<trkpt lat="51.01742172241211" lon="14.65526294708252">
<ele>511.1000061035156</ele>
<time>2014-06-19T14:58:10Z</time>
</trkpt>
<trkpt lat="51.017372131347656" lon="14.655306816101074">
<ele>511.0</ele>
<time>2014-06-19T14:58:15Z</time>
</trkpt>
<trkpt lat="51.017337799072266" lon="14.655356407165527">
<ele>512.5999755859375</ele>
<time>2014-06-19T14:58:17Z</time>
</trkpt>
<trkpt lat="51.017295837402344" lon="14.655393600463867">
<ele>513.5999755859375</ele>
<time>2014-06-19T14:58:21Z</time>
</trkpt>
<trkpt lat="51.01724624633789" lon="14.655416488647461">
<ele>514.5</ele>
<time>2014-06-19T14:58:26Z</time>
</trkpt>
<trkpt lat="51.01720428466797" lon="14.6554536819458">
<ele>516.5999755859375</ele>
<time>2014-06-19T14:58:29Z</time>
</trkpt>
<trkpt lat="51.017181396484375" lon="14.655533790588379">
<ele>515.7000122070312</ele>
<time>2014-06-19T14:58:35Z</time>
</trkpt>
<trkpt lat="51.01713180541992" lon="14.655591011047363">
<ele>515.7000122070312</ele>
<time>2014-06-19T14:58:39Z</time>
</trkpt>
<trkpt lat="51.01708984375" lon="14.655644416809082">
<ele>516.5999755859375</ele>
<time>2014-06-19T14:58:42Z</time>
</trkpt>
<trkpt lat="51.01703643798828" lon="14.655698776245117">
<ele>515.9000244140625</ele>
<time>2014-06-19T14:58:46Z</time>
</trkpt>
<trkpt lat="51.01698303222656" lon="14.655712127685547">
<ele>517.7000122070312</ele>
<time>2014-06-19T14:58:50Z</time>
</trkpt>
<trkpt lat="51.016929626464844" lon="14.655736923217773">
<ele>520.2000122070312</ele>
<time>2014-06-19T14:58:55Z</time>
</trkpt>
<trkpt lat="51.01689529418945" lon="14.65578842163086">
<ele>518.7000122070312</ele>
<time>2014-06-19T14:58:58Z</time>
</trkpt>
<trkpt lat="51.016876220703125" lon="14.655852317810059">
<ele>518.7000122070312</ele>
<time>2014-06-19T14:59:01Z</time>
</trkpt>
<trkpt lat="51.016849517822266" lon="14.655925750732422">
<ele>523.0</ele>
<time>2014-06-19T14:59:05Z</time>
</trkpt>
<trkpt lat="51.01681137084961" lon="14.655994415283203">
<ele>524.7999877929688</ele>
<time>2014-06-19T14:59:09Z</time>
</trkpt>
<trkpt lat="51.01678466796875" lon="14.656057357788086">
<ele>526.2000122070312</ele>
<time>2014-06-19T14:59:13Z</time>
</trkpt>
<trkpt lat="51.01675033569336" lon="14.656119346618652">
<ele>527.9000244140625</ele>
<time>2014-06-19T14:59:16Z</time>
</trkpt>
<trkpt lat="51.01670837402344" lon="14.656153678894043">
<ele>528.7999877929688</ele>
<time>2014-06-19T14:59:20Z</time>
</trkpt>
<trkpt lat="51.01666259765625" lon="14.656166076660156">
<ele>530.5999755859375</ele>
<time>2014-06-19T14:59:24Z</time>
</trkpt>
<trkpt lat="51.01661682128906" lon="14.656198501586914">
<ele>534.7999877929688</ele>
<time>2014-06-19T14:59:30Z</time>
</trkpt>
<trkpt lat="51.01656723022461" lon="14.656245231628418">
<ele>536.0</ele>
<time>2014-06-19T14:59:32Z</time>
</trkpt>
<trkpt lat="51.01652526855469" lon="14.656301498413086">
<ele>533.0999755859375</ele>
<time>2014-06-19T14:59:36Z</time>
</trkpt>
<trkpt lat="51.01648712158203" lon="14.656373023986816">
<ele>534.5999755859375</ele>
<time>2014-06-19T14:59:38Z</time>
</trkpt>
<trkpt lat="51.01643753051758" lon="14.656425476074219">
<ele>536.0999755859375</ele>
<time>2014-06-19T14:59:42Z</time>
</trkpt>
<trkpt lat="51.016380310058594" lon="14.656462669372559">
<ele>532.9000244140625</ele>
<time>2014-06-19T14:59:44Z</time>
</trkpt>
<trkpt lat="51.01632308959961" lon="14.656497955322266">
<ele>532.7000122070312</ele>
<time>2014-06-19T14:59:48Z</time>
</trkpt>
<trkpt lat="51.016265869140625" lon="14.656547546386719">
<ele>531.9000244140625</ele>
<time>2014-06-19T14:59:50Z</time>
</trkpt>
<trkpt lat="51.016212463378906" lon="14.656587600708008">
<ele>527.5999755859375</ele>
<time>2014-06-19T14:59:53Z</time>
</trkpt>
<trkpt lat="51.01615524291992" lon="14.656622886657715">
<ele>525.5999755859375</ele>
<time>2014-06-19T14:59:55Z</time>
</trkpt>
<trkpt lat="51.01609802246094" lon="14.656645774841309">
<ele>524.5999755859375</ele>
<time>2014-06-19T14:59:57Z</time>
</trkpt>
<trkpt lat="51.01604461669922" lon="14.656667709350586">
<ele>525.5999755859375</ele>
<time>2014-06-19T15:00:00Z</time>
</trkpt>
<trkpt lat="51.0159912109375" lon="14.656657218933105">
<ele>525.5999755859375</ele>
<time>2014-06-19T15:00:03Z</time>
</trkpt>
<trkpt lat="51.01593780517578" lon="14.65661334991455">
<ele>525.5</ele>
<time>2014-06-19T15:00:07Z</time>
</trkpt>
<trkpt lat="51.015899658203125" lon="14.656572341918945">
<ele>525.7000122070312</ele>
<time>2014-06-19T15:00:09Z</time>
</trkpt>
<trkpt lat="51.01585006713867" lon="14.65653133392334">
<ele>526.7999877929688</ele>
<time>2014-06-19T15:00:11Z</time>
</trkpt>
<trkpt lat="51.015804290771484" lon="14.656506538391113">
<ele>528.0999755859375</ele>
<time>2014-06-19T15:00:15Z</time>
</trkpt>
<trkpt lat="51.01575469970703" lon="14.656477928161621">
<ele>529.7000122070312</ele>
<time>2014-06-19T15:00:17Z</time>
</trkpt>
<trkpt lat="51.01570129394531" lon="14.656450271606445">
<ele>528.0</ele>
<time>2014-06-19T15:00:21Z</time>
</trkpt>
<trkpt lat="51.015647888183594" lon="14.656437873840332">
<ele>529.4000244140625</ele>
<time>2014-06-19T15:00:23Z</time>
</trkpt>
<trkpt lat="51.01559829711914" lon="14.65640926361084">
<ele>530.7000122070312</ele>
<time>2014-06-19T15:00:27Z</time>
</trkpt>
<trkpt lat="51.01555252075195" lon="14.656366348266602">
<ele>530.7999877929688</ele>
<time>2014-06-19T15:00:30Z</time>
</trkpt>
<trkpt lat="51.01551055908203" lon="14.65632152557373">
<ele>532.7999877929688</ele>
<time>2014-06-19T15:00:35Z</time>
</trkpt>
<trkpt lat="51.01545715332031" lon="14.656246185302734">
<ele>533.9000244140625</ele>
<time>2014-06-19T15:00:37Z</time>
</trkpt>
<trkpt lat="51.01540756225586" lon="14.6561918258667">
<ele>533.5999755859375</ele>
<time>2014-06-19T15:00:41Z</time>
</trkpt>
<trkpt lat="51.01536178588867" lon="14.656112670898438">
<ele>532.7000122070312</ele>
<time>2014-06-19T15:00:44Z</time>
</trkpt>
<trkpt lat="51.01531982421875" lon="14.656060218811035">
<ele>530.0999755859375</ele>
<time>2014-06-19T15:00:47Z</time>
</trkpt>
<trkpt lat="51.015281677246094" lon="14.656021118164062">
<ele>531.0999755859375</ele>
<time>2014-06-19T15:00:49Z</time>
</trkpt>
<trkpt lat="51.015235900878906" lon="14.655972480773926">
<ele>530.0</ele>
<time>2014-06-19T15:00:53Z</time>
</trkpt>
<trkpt lat="51.015201568603516" lon="14.655916213989258">
<ele>531.0999755859375</ele>
<time>2014-06-19T15:00:55Z</time>
</trkpt>
<trkpt lat="51.015159606933594" lon="14.65583610534668">
<ele>532.2000122070312</ele>
<time>2014-06-19T15:00:59Z</time>
</trkpt>
<trkpt lat="51.01512908935547" lon="14.655765533447266">
<ele>533.0999755859375</ele>
<time>2014-06-19T15:01:01Z</time>
</trkpt>
<trkpt lat="51.01509094238281" lon="14.655689239501953">
<ele>535.2000122070312</ele>
<time>2014-06-19T15:01:03Z</time>
</trkpt>
<trkpt lat="51.01506423950195" lon="14.655621528625488">
<ele>535.5</ele>
<time>2014-06-19T15:01:07Z</time>
</trkpt>
<trkpt lat="51.01504135131836" lon="14.655558586120605">
<ele>537.7999877929688</ele>
<time>2014-06-19T15:01:09Z</time>
</trkpt>
<trkpt lat="51.015018463134766" lon="14.655492782592773">
<ele>538.4000244140625</ele>
<time>2014-06-19T15:01:13Z</time>
</trkpt>
<trkpt lat="51.0150032043457" lon="14.655401229858398">
<ele>537.2000122070312</ele>
<time>2014-06-19T15:01:17Z</time>
</trkpt>
<trkpt lat="51.014976501464844" lon="14.655338287353516">
<ele>537.5999755859375</ele>
<time>2014-06-19T15:01:19Z</time>
</trkpt>
<trkpt lat="51.01496124267578" lon="14.655244827270508">
<ele>539.4000244140625</ele>
<time>2014-06-19T15:01:23Z</time>
</trkpt>
<trkpt lat="51.01496124267578" lon="14.655150413513184">
<ele>540.4000244140625</ele>
<time>2014-06-19T15:01:27Z</time>
</trkpt>
<trkpt lat="51.01496124267578" lon="14.655072212219238">
<ele>540.5999755859375</ele>
<time>2014-06-19T15:01:29Z</time>
</trkpt>
<trkpt lat="51.014949798583984" lon="14.654994010925293">
<ele>539.9000244140625</ele>
<time>2014-06-19T15:01:31Z</time>
</trkpt>
<trkpt lat="51.01494598388672" lon="14.654911994934082">
<ele>541.2999877929688</ele>
<time>2014-06-19T15:01:33Z</time>
</trkpt>
<trkpt lat="51.01494216918945" lon="14.65482234954834">
<ele>542.2999877929688</ele>
<time>2014-06-19T15:01:38Z</time>
</trkpt>
<trkpt lat="51.01494216918945" lon="14.654743194580078">
<ele>545.2000122070312</ele>
<time>2014-06-19T15:01:41Z</time>
</trkpt>
<trkpt lat="51.01491928100586" lon="14.654650688171387">
<ele>546.2999877929688</ele>
<time>2014-06-19T15:01:45Z</time>
</trkpt>
<trkpt lat="51.014888763427734" lon="14.654557228088379">
<ele>546.2999877929688</ele>
<time>2014-06-19T15:01:47Z</time>
</trkpt>
<trkpt lat="51.014862060546875" lon="14.654480934143066">
<ele>545.7000122070312</ele>
<time>2014-06-19T15:01:49Z</time>
</trkpt>
<trkpt lat="51.014835357666016" lon="14.654397964477539">
<ele>547.0999755859375</ele>
<time>2014-06-19T15:01:52Z</time>
</trkpt>
<trkpt lat="51.01481246948242" lon="14.654315948486328">
<ele>548.0999755859375</ele>
<time>2014-06-19T15:01:54Z</time>
</trkpt>
<trkpt lat="51.01479721069336" lon="14.65424633026123">
<ele>549.5</ele>
<time>2014-06-19T15:01:56Z</time>
</trkpt>
<trkpt lat="51.01478576660156" lon="14.654175758361816">
<ele>548.2000122070312</ele>
<time>2014-06-19T15:01:58Z</time>
</trkpt>
<trkpt lat="51.014766693115234" lon="14.654099464416504">
<ele>547.7999877929688</ele>
<time>2014-06-19T15:02:00Z</time>
</trkpt>
<trkpt lat="51.01474380493164" lon="14.654024124145508">
<ele>546.4000244140625</ele>
<time>2014-06-19T15:02:02Z</time>
</trkpt>
<trkpt lat="51.01472854614258" lon="14.65395736694336">
<ele>547.7000122070312</ele>
<time>2014-06-19T15:02:03Z</time>
</trkpt>
<trkpt lat="51.014705657958984" lon="14.6538667678833">
<ele>549.2000122070312</ele>
<time>2014-06-19T15:02:06Z</time>
</trkpt>
<trkpt lat="51.014678955078125" lon="14.653782844543457">
<ele>549.5</ele>
<time>2014-06-19T15:02:10Z</time>
</trkpt>
<trkpt lat="51.014644622802734" lon="14.653716087341309">
<ele>551.2000122070312</ele>
<time>2014-06-19T15:02:12Z</time>
</trkpt>
<trkpt lat="51.01460647583008" lon="14.653648376464844">
<ele>550.0999755859375</ele>
<time>2014-06-19T15:02:16Z</time>
</trkpt>
<trkpt lat="51.01457595825195" lon="14.653575897216797">
<ele>549.5</ele>
<time>2014-06-19T15:02:18Z</time>
</trkpt>
<trkpt lat="51.014556884765625" lon="14.653507232666016">
<ele>549.5</ele>
<time>2014-06-19T15:02:20Z</time>
</trkpt>
<trkpt lat="51.0145378112793" lon="14.653441429138184">
<ele>550.9000244140625</ele>
<time>2014-06-19T15:02:22Z</time>
</trkpt>
<trkpt lat="51.014503479003906" lon="14.653348922729492">
<ele>549.9000244140625</ele>
<time>2014-06-19T15:02:26Z</time>
</trkpt>
<trkpt lat="51.014469146728516" lon="14.653291702270508">
<ele>549.5</ele>
<time>2014-06-19T15:02:28Z</time>
</trkpt>
<trkpt lat="51.01443099975586" lon="14.653254508972168">
<ele>550.0</ele>
<time>2014-06-19T15:02:30Z</time>
</trkpt>
<trkpt lat="51.01438522338867" lon="14.653221130371094">
<ele>550.7000122070312</ele>
<time>2014-06-19T15:02:32Z</time>
</trkpt>
<trkpt lat="51.014347076416016" lon="14.653182029724121">
<ele>552.2999877929688</ele>
<time>2014-06-19T15:02:36Z</time>
</trkpt>
<trkpt lat="51.014305114746094" lon="14.653128623962402">
<ele>551.7999877929688</ele>
<time>2014-06-19T15:02:38Z</time>
</trkpt>
<trkpt lat="51.01426315307617" lon="14.65306282043457">
<ele>552.4000244140625</ele>
<time>2014-06-19T15:02:42Z</time>
</trkpt>
<trkpt lat="51.014225006103516" lon="14.653013229370117">
<ele>553.2000122070312</ele>
<time>2014-06-19T15:02:44Z</time>
</trkpt>
<trkpt lat="51.01418685913086" lon="14.65294075012207">
<ele>556.7000122070312</ele>
<time>2014-06-19T15:02:48Z</time>
</trkpt>
<trkpt lat="51.01416015625" lon="14.652867317199707">
<ele>556.0999755859375</ele>
<time>2014-06-19T15:02:52Z</time>
</trkpt>
<trkpt lat="51.014129638671875" lon="14.65279483795166">
<ele>557.2000122070312</ele>
<time>2014-06-19T15:02:54Z</time>
</trkpt>
<trkpt lat="51.01409149169922" lon="14.652724266052246">
<ele>557.4000244140625</ele>
<time>2014-06-19T15:02:58Z</time>
</trkpt>
<trkpt lat="51.01405715942383" lon="14.652666091918945">
<ele>556.2000122070312</ele>
<time>2014-06-19T15:03:00Z</time>
</trkpt>
<trkpt lat="51.0140266418457" lon="14.652613639831543">
<ele>555.9000244140625</ele>
<time>2014-06-19T15:03:02Z</time>
</trkpt>
<trkpt lat="51.01399230957031" lon="14.652548789978027">
<ele>555.0999755859375</ele>
<time>2014-06-19T15:03:04Z</time>
</trkpt>
<trkpt lat="51.01395797729492" lon="14.65249252319336">
<ele>555.0999755859375</ele>
<time>2014-06-19T15:03:08Z</time>
</trkpt>
<trkpt lat="51.013912200927734" lon="14.652460098266602">
<ele>556.0999755859375</ele>
<time>2014-06-19T15:03:10Z</time>
</trkpt>
<trkpt lat="51.01387023925781" lon="14.652444839477539">
<ele>557.2999877929688</ele>
<time>2014-06-19T15:03:14Z</time>
</trkpt>
<trkpt lat="51.013832092285156" lon="14.65239429473877">
<ele>555.2000122070312</ele>
<time>2014-06-19T15:03:16Z</time>
</trkpt>
<trkpt lat="51.013790130615234" lon="14.652338027954102">
<ele>555.0999755859375</ele>
<time>2014-06-19T15:03:19Z</time>
</trkpt>
<trkpt lat="51.01374816894531" lon="14.652276992797852">
<ele>555.2999877929688</ele>
<time>2014-06-19T15:03:22Z</time>
</trkpt>
<trkpt lat="51.01370620727539" lon="14.652227401733398">
<ele>557.2999877929688</ele>
<time>2014-06-19T15:03:26Z</time>
</trkpt>
<trkpt lat="51.01365661621094" lon="14.652206420898438">
<ele>557.5999755859375</ele>
<time>2014-06-19T15:03:28Z</time>
</trkpt>
<trkpt lat="51.013607025146484" lon="14.65217399597168">
<ele>558.2000122070312</ele>
<time>2014-06-19T15:03:32Z</time>
</trkpt>
<trkpt lat="51.013545989990234" lon="14.65213394165039">
<ele>558.4000244140625</ele>
<time>2014-06-19T15:03:34Z</time>
</trkpt>
<trkpt lat="51.01350021362305" lon="14.652091026306152">
<ele>560.5999755859375</ele>
<time>2014-06-19T15:03:38Z</time>
</trkpt>
<trkpt lat="51.01346206665039" lon="14.65203857421875">
<ele>561.4000244140625</ele>
<time>2014-06-19T15:03:41Z</time>
</trkpt>
<trkpt lat="51.013450622558594" lon="14.651945114135742">
<ele>560.0</ele>
<time>2014-06-19T15:03:46Z</time>
</trkpt>
<trkpt lat="51.01343536376953" lon="14.651859283447266">
<ele>560.0999755859375</ele>
<time>2014-06-19T15:03:49Z</time>
</trkpt>
<trkpt lat="51.013427734375" lon="14.651773452758789">
<ele>559.7000122070312</ele>
<time>2014-06-19T15:03:52Z</time>
</trkpt>
<trkpt lat="51.01342010498047" lon="14.651701927185059">
<ele>560.0</ele>
<time>2014-06-19T15:03:54Z</time>
</trkpt>
<trkpt lat="51.013389587402344" lon="14.651620864868164">
<ele>561.7000122070312</ele>
<time>2014-06-19T15:04:00Z</time>
</trkpt>
<trkpt lat="51.01335525512695" lon="14.651549339294434">
<ele>562.7999877929688</ele>
<time>2014-06-19T15:04:03Z</time>
</trkpt>
<trkpt lat="51.013328552246094" lon="14.651459693908691">
<ele>562.5</ele>
<time>2014-06-19T15:04:06Z</time>
</trkpt>
<trkpt lat="51.01329803466797" lon="14.651394844055176">
<ele>562.9000244140625</ele>
<time>2014-06-19T15:04:08Z</time>
</trkpt>
<trkpt lat="51.01325607299805" lon="14.651333808898926">
<ele>564.2000122070312</ele>
<time>2014-06-19T15:04:11Z</time>
</trkpt>
<trkpt lat="51.01321792602539" lon="14.651288986206055">
<ele>564.9000244140625</ele>
<time>2014-06-19T15:04:14Z</time>
</trkpt>
<trkpt lat="51.01316833496094" lon="14.651223182678223">
<ele>564.5</ele>
<time>2014-06-19T15:04:17Z</time>
</trkpt>
<trkpt lat="51.01313018798828" lon="14.651144981384277">
<ele>566.2999877929688</ele>
<time>2014-06-19T15:04:20Z</time>
</trkpt>
<trkpt lat="51.013099670410156" lon="14.651069641113281">
<ele>565.9000244140625</ele>
<time>2014-06-19T15:04:23Z</time>
</trkpt>
<trkpt lat="51.0130729675293" lon="14.650993347167969">
<ele>563.2999877929688</ele>
<time>2014-06-19T15:04:26Z</time>
</trkpt>
<trkpt lat="51.013057708740234" lon="14.650924682617188">
<ele>562.7000122070312</ele>
<time>2014-06-19T15:04:29Z</time>
</trkpt>
<trkpt lat="51.01301574707031" lon="14.65087604522705">
<ele>563.0</ele>
<time>2014-06-19T15:04:34Z</time>
</trkpt>
<trkpt lat="51.012962341308594" lon="14.650838851928711">
<ele>562.7000122070312</ele>
<time>2014-06-19T15:04:38Z</time>
</trkpt>
<trkpt lat="51.012908935546875" lon="14.650816917419434">
<ele>563.0999755859375</ele>
<time>2014-06-19T15:04:42Z</time>
</trkpt>
<trkpt lat="51.01285934448242" lon="14.65079116821289">
<ele>565.5999755859375</ele>
<time>2014-06-19T15:04:45Z</time>
</trkpt>
<trkpt lat="51.01282501220703" lon="14.650732040405273">
<ele>568.4000244140625</ele>
<time>2014-06-19T15:04:49Z</time>
</trkpt>
<trkpt lat="51.01279067993164" lon="14.650642395019531">
<ele>567.7999877929688</ele>
<time>2014-06-19T15:04:53Z</time>
</trkpt>
<trkpt lat="51.012752532958984" lon="14.650568962097168">
<ele>566.2999877929688</ele>
<time>2014-06-19T15:04:56Z</time>
</trkpt>
<trkpt lat="51.01271057128906" lon="14.65051555633545">
<ele>567.4000244140625</ele>
<time>2014-06-19T15:04:58Z</time>
</trkpt>
<trkpt lat="51.01266860961914" lon="14.650477409362793">
<ele>568.7999877929688</ele>
<time>2014-06-19T15:05:00Z</time>
</trkpt>
<trkpt lat="51.012611389160156" lon="14.650431632995605">
<ele>570.5</ele>
<time>2014-06-19T15:05:04Z</time>
</trkpt>
<trkpt lat="51.0125732421875" lon="14.650390625">
<ele>570.2000122070312</ele>
<time>2014-06-19T15:05:06Z</time>
</trkpt>
<trkpt lat="51.012535095214844" lon="14.650330543518066">
<ele>570.9000244140625</ele>
<time>2014-06-19T15:05:07Z</time>
</trkpt>
<trkpt lat="51.01250076293945" lon="14.6502685546875">
<ele>569.0999755859375</ele>
<time>2014-06-19T15:05:09Z</time>
</trkpt>
<trkpt lat="51.01247024536133" lon="14.6502103805542">
<ele>569.0999755859375</ele>
<time>2014-06-19T15:05:11Z</time>
</trkpt>
<trkpt lat="51.01243209838867" lon="14.650160789489746">
<ele>566.5999755859375</ele>
<time>2014-06-19T15:05:14Z</time>
</trkpt>
<trkpt lat="51.01237487792969" lon="14.650107383728027">
<ele>566.0999755859375</ele>
<time>2014-06-19T15:05:17Z</time>
</trkpt>
<trkpt lat="51.012325286865234" lon="14.650053024291992">
<ele>566.4000244140625</ele>
<time>2014-06-19T15:05:20Z</time>
</trkpt>
<trkpt lat="51.01228332519531" lon="14.650017738342285">
<ele>564.9000244140625</ele>
<time>2014-06-19T15:05:22Z</time>
</trkpt>
<trkpt lat="51.012245178222656" lon="14.649969100952148">
<ele>564.4000244140625</ele>
<time>2014-06-19T15:05:25Z</time>
</trkpt>
<trkpt lat="51.0121955871582" lon="14.649931907653809">
<ele>565.0</ele>
<time>2014-06-19T15:05:30Z</time>
</trkpt>
<trkpt lat="51.01215744018555" lon="14.649890899658203">
<ele>564.7999877929688</ele>
<time>2014-06-19T15:05:33Z</time>
</trkpt>
<trkpt lat="51.012123107910156" lon="14.649835586547852">
<ele>563.5</ele>
<time>2014-06-19T15:05:37Z</time>
</trkpt>
<trkpt lat="51.01207733154297" lon="14.649806022644043">
<ele>560.4000244140625</ele>
<time>2014-06-19T15:05:41Z</time>
</trkpt>
<trkpt lat="51.01200866699219" lon="14.649821281433105">
<ele>560.2999877929688</ele>
<time>2014-06-19T15:05:45Z</time>
</trkpt>
<trkpt lat="51.0119514465332" lon="14.649845123291016">
<ele>557.2000122070312</ele>
<time>2014-06-19T15:05:47Z</time>
</trkpt>
<trkpt lat="51.011878967285156" lon="14.649845123291016">
<ele>555.0999755859375</ele>
<time>2014-06-19T15:05:49Z</time>
</trkpt>
<trkpt lat="51.01182556152344" lon="14.649852752685547">
<ele>553.7999877929688</ele>
<time>2014-06-19T15:05:50Z</time>
</trkpt>
<trkpt lat="51.011775970458984" lon="14.649845123291016">
<ele>554.5999755859375</ele>
<time>2014-06-19T15:05:53Z</time>
</trkpt>
<trkpt lat="51.01172637939453" lon="14.64981460571289">
<ele>554.0</ele>
<time>2014-06-19T15:05:55Z</time>
</trkpt>
<trkpt lat="51.01167678833008" lon="14.649782180786133">
<ele>553.4000244140625</ele>
<time>2014-06-19T15:05:56Z</time>
</trkpt>
<trkpt lat="51.01163101196289" lon="14.649754524230957">
<ele>554.0999755859375</ele>
<time>2014-06-19T15:05:58Z</time>
</trkpt>
<trkpt lat="51.011573791503906" lon="14.649734497070312">
<ele>554.0</ele>
<time>2014-06-19T15:06:00Z</time>
</trkpt>
<trkpt lat="51.01151657104492" lon="14.649717330932617">
<ele>552.5</ele>
<time>2014-06-19T15:06:03Z</time>
</trkpt>
<trkpt lat="51.01145935058594" lon="14.649702072143555">
<ele>552.0999755859375</ele>
<time>2014-06-19T15:06:05Z</time>
</trkpt>
<trkpt lat="51.011409759521484" lon="14.64967155456543">
<ele>551.2000122070312</ele>
<time>2014-06-19T15:06:07Z</time>
</trkpt>
<trkpt lat="51.01136779785156" lon="14.649628639221191">
<ele>551.5999755859375</ele>
<time>2014-06-19T15:06:08Z</time>
</trkpt>
<trkpt lat="51.01132583618164" lon="14.649557113647461">
<ele>551.0</ele>
<time>2014-06-19T15:06:12Z</time>
</trkpt>
<trkpt lat="51.011295318603516" lon="14.649493217468262">
<ele>548.9000244140625</ele>
<time>2014-06-19T15:06:15Z</time>
</trkpt>
<trkpt lat="51.011260986328125" lon="14.649435997009277">
<ele>548.4000244140625</ele>
<time>2014-06-19T15:06:17Z</time>
</trkpt>
<trkpt lat="51.011226654052734" lon="14.649392127990723">
<ele>548.9000244140625</ele>
<time>2014-06-19T15:06:21Z</time>
</trkpt>
<trkpt lat="51.011199951171875" lon="14.649322509765625">
<ele>548.4000244140625</ele>
<time>2014-06-19T15:06:24Z</time>
</trkpt>
<trkpt lat="51.01118087768555" lon="14.649256706237793">
<ele>548.7000122070312</ele>
<time>2014-06-19T15:06:27Z</time>
</trkpt>
<trkpt lat="51.01115798950195" lon="14.649191856384277">
<ele>547.5999755859375</ele>
<time>2014-06-19T15:06:30Z</time>
</trkpt>
<trkpt lat="51.01114273071289" lon="14.649094581604004">
<ele>544.7000122070312</ele>
<time>2014-06-19T15:06:32Z</time>
</trkpt>
<trkpt lat="51.01112747192383" lon="14.649002075195312">
<ele>544.2000122070312</ele>
<time>2014-06-19T15:06:36Z</time>
</trkpt>
<trkpt lat="51.01109313964844" lon="14.648935317993164">
<ele>544.2999877929688</ele>
<time>2014-06-19T15:06:39Z</time>
</trkpt>
<trkpt lat="51.01105499267578" lon="14.648880958557129">
<ele>544.0999755859375</ele>
<time>2014-06-19T15:06:42Z</time>
</trkpt>
<trkpt lat="51.01102066040039" lon="14.648826599121094">
<ele>544.5</ele>
<time>2014-06-19T15:06:44Z</time>
</trkpt>
<trkpt lat="51.010990142822266" lon="14.648767471313477">
<ele>542.7999877929688</ele>
<time>2014-06-19T15:06:48Z</time>
</trkpt>
<trkpt lat="51.01093292236328" lon="14.648760795593262">
<ele>541.5</ele>
<time>2014-06-19T15:06:53Z</time>
</trkpt>
<trkpt lat="51.010868072509766" lon="14.648724555969238">
<ele>540.7000122070312</ele>
<time>2014-06-19T15:07:15Z</time>
</trkpt>
<trkpt lat="51.01079177856445" lon="14.648674011230469">
<ele>538.5999755859375</ele>
<time>2014-06-19T15:07:18Z</time>
</trkpt>
<trkpt lat="51.01070785522461" lon="14.648637771606445">
<ele>538.5</ele>
<time>2014-06-19T15:07:20Z</time>
</trkpt>
<trkpt lat="51.01063919067383" lon="14.64859390258789">
<ele>538.9000244140625</ele>
<time>2014-06-19T15:07:22Z</time>
</trkpt>
<trkpt lat="51.010581970214844" lon="14.64856243133545">
<ele>537.9000244140625</ele>
<time>2014-06-19T15:07:24Z</time>
</trkpt>
<trkpt lat="51.010536193847656" lon="14.648565292358398">
<ele>537.5</ele>
<time>2014-06-19T15:07:26Z</time>
</trkpt>
<trkpt lat="51.010475158691406" lon="14.648568153381348">
<ele>537.0999755859375</ele>
<time>2014-06-19T15:07:29Z</time>
</trkpt>
<trkpt lat="51.010414123535156" lon="14.64858341217041">
<ele>537.2000122070312</ele>
<time>2014-06-19T15:07:31Z</time>
</trkpt>
<trkpt lat="51.01036834716797" lon="14.648584365844727">
<ele>537.7999877929688</ele>
<time>2014-06-19T15:07:36Z</time>
</trkpt>
<trkpt lat="51.01029586791992" lon="14.648513793945312">
<ele>536.0999755859375</ele>
<time>2014-06-19T15:07:38Z</time>
</trkpt>
<trkpt lat="51.01024627685547" lon="14.648441314697266">
<ele>535.7999877929688</ele>
<time>2014-06-19T15:07:41Z</time>
</trkpt>
<trkpt lat="51.01021194458008" lon="14.64837646484375">
<ele>536.0999755859375</ele>
<time>2014-06-19T15:07:44Z</time>
</trkpt>
<trkpt lat="51.01017761230469" lon="14.648329734802246">
<ele>536.2000122070312</ele>
<time>2014-06-19T15:07:48Z</time>
</trkpt>
<trkpt lat="51.01020431518555" lon="14.648386001586914">
<ele>537.7999877929688</ele>
<time>2014-06-19T15:07:57Z</time>
</trkpt>
<trkpt lat="51.010250091552734" lon="14.648406982421875">
<ele>536.4000244140625</ele>
<time>2014-06-19T15:08:12Z</time>
</trkpt>
<trkpt lat="51.010318756103516" lon="14.648431777954102">
<ele>537.2000122070312</ele>
<time>2014-06-19T15:08:14Z</time>
</trkpt>
<trkpt lat="51.01039123535156" lon="14.648468971252441">
<ele>537.5</ele>
<time>2014-06-19T15:08:15Z</time>
</trkpt>
<trkpt lat="51.010467529296875" lon="14.648500442504883">
<ele>538.4000244140625</ele>
<time>2014-06-19T15:08:18Z</time>
</trkpt>
<trkpt lat="51.010528564453125" lon="14.648526191711426">
<ele>539.7000122070312</ele>
<time>2014-06-19T15:08:20Z</time>
</trkpt>
<trkpt lat="51.01059341430664" lon="14.64854621887207">
<ele>540.2000122070312</ele>
<time>2014-06-19T15:08:22Z</time>
</trkpt>
<trkpt lat="51.010643005371094" lon="14.648563385009766">
<ele>541.4000244140625</ele>
<time>2014-06-19T15:08:24Z</time>
</trkpt>
<trkpt lat="51.01068878173828" lon="14.648580551147461">
<ele>541.7999877929688</ele>
<time>2014-06-19T15:08:26Z</time>
</trkpt>
<trkpt lat="51.01073455810547" lon="14.648622512817383">
<ele>541.5999755859375</ele>
<time>2014-06-19T15:08:28Z</time>
</trkpt>
<trkpt lat="51.01078414916992" lon="14.64865493774414">
<ele>542.0999755859375</ele>
<time>2014-06-19T15:08:30Z</time>
</trkpt>
<trkpt lat="51.01082992553711" lon="14.648695945739746">
<ele>541.9000244140625</ele>
<time>2014-06-19T15:08:33Z</time>
</trkpt>
<trkpt lat="51.01087951660156" lon="14.648731231689453">
<ele>543.5999755859375</ele>
<time>2014-06-19T15:08:36Z</time>
</trkpt>
<trkpt lat="51.01093292236328" lon="14.648760795593262">
<ele>543.9000244140625</ele>
<time>2014-06-19T15:08:40Z</time>
</trkpt>
<trkpt lat="51.0109748840332" lon="14.648796081542969">
<ele>541.0999755859375</ele>
<time>2014-06-19T15:08:42Z</time>
</trkpt>
<trkpt lat="51.011016845703125" lon="14.648809432983398">
<ele>542.2000122070312</ele>
<time>2014-06-19T15:08:47Z</time>
</trkpt>
<trkpt lat="51.01106262207031" lon="14.648853302001953">
<ele>544.7000122070312</ele>
<time>2014-06-19T15:08:51Z</time>
</trkpt>
<trkpt lat="51.0110969543457" lon="14.648931503295898">
<ele>544.7000122070312</ele>
<time>2014-06-19T15:08:55Z</time>
</trkpt>
<trkpt lat="51.01115036010742" lon="14.648999214172363">
<ele>541.2000122070312</ele>
<time>2014-06-19T15:08:58Z</time>
</trkpt>
<trkpt lat="51.011199951171875" lon="14.649067878723145">
<ele>541.2000122070312</ele>
<time>2014-06-19T15:09:00Z</time>
</trkpt>
<trkpt lat="51.01124572753906" lon="14.64913558959961">
<ele>539.0</ele>
<time>2014-06-19T15:09:02Z</time>
</trkpt>
<trkpt lat="51.01128005981445" lon="14.649188041687012">
<ele>539.7999877929688</ele>
<time>2014-06-19T15:09:04Z</time>
</trkpt>
<trkpt lat="51.011322021484375" lon="14.64926528930664">
<ele>540.7000122070312</ele>
<time>2014-06-19T15:09:07Z</time>
</trkpt>
<trkpt lat="51.011356353759766" lon="14.64931583404541">
<ele>541.0</ele>
<time>2014-06-19T15:09:09Z</time>
</trkpt>
<trkpt lat="51.01139450073242" lon="14.649365425109863">
<ele>542.0999755859375</ele>
<time>2014-06-19T15:09:29Z</time>
</trkpt>
<trkpt lat="51.011451721191406" lon="14.649380683898926">
<ele>543.5</ele>
<time>2014-06-19T15:09:32Z</time>
</trkpt>
<trkpt lat="51.01152801513672" lon="14.64942455291748">
<ele>545.0</ele>
<time>2014-06-19T15:09:33Z</time>
</trkpt>
<trkpt lat="51.011566162109375" lon="14.649467468261719">
<ele>545.4000244140625</ele>
<time>2014-06-19T15:09:35Z</time>
</trkpt>
<trkpt lat="51.01161193847656" lon="14.649502754211426">
<ele>546.4000244140625</ele>
<time>2014-06-19T15:09:36Z</time>
</trkpt>
<trkpt lat="51.011680603027344" lon="14.64954948425293">
<ele>546.2999877929688</ele>
<time>2014-06-19T15:09:38Z</time>
</trkpt>
<trkpt lat="51.011749267578125" lon="14.649575233459473">
<ele>546.7000122070312</ele>
<time>2014-06-19T15:09:40Z</time>
</trkpt>
<trkpt lat="51.011810302734375" lon="14.649599075317383">
<ele>547.5</ele>
<time>2014-06-19T15:09:42Z</time>
</trkpt>
<trkpt lat="51.0118522644043" lon="14.649620056152344">
<ele>548.2999877929688</ele>
<time>2014-06-19T15:09:43Z</time>
</trkpt>
<trkpt lat="51.01190185546875" lon="14.649642944335938">
<ele>550.2999877929688</ele>
<time>2014-06-19T15:09:47Z</time>
</trkpt>
<trkpt lat="51.0119514465332" lon="14.649630546569824">
<ele>549.2999877929688</ele>
<time>2014-06-19T15:09:52Z</time>
</trkpt>
<trkpt lat="51.01200485229492" lon="14.649637222290039">
<ele>548.5999755859375</ele>
<time>2014-06-19T15:09:56Z</time>
</trkpt>
<trkpt lat="51.01205062866211" lon="14.649636268615723">
<ele>547.2999877929688</ele>
<time>2014-06-19T15:09:58Z</time>
</trkpt>
<trkpt lat="51.01210403442383" lon="14.64965534210205">
<ele>546.2000122070312</ele>
<time>2014-06-19T15:10:01Z</time>
</trkpt>
<trkpt lat="51.01214599609375" lon="14.64970874786377">
<ele>549.2000122070312</ele>
<time>2014-06-19T15:10:05Z</time>
</trkpt>
<trkpt lat="51.01219177246094" lon="14.649760246276855">
<ele>550.5999755859375</ele>
<time>2014-06-19T15:10:08Z</time>
</trkpt>
<trkpt lat="51.012237548828125" lon="14.64980697631836">
<ele>549.7999877929688</ele>
<time>2014-06-19T15:10:14Z</time>
</trkpt>
<trkpt lat="51.012264251708984" lon="14.64986515045166">
<ele>548.2999877929688</ele>
<time>2014-06-19T15:10:16Z</time>
</trkpt>
<trkpt lat="51.01229476928711" lon="14.649924278259277">
<ele>549.4000244140625</ele>
<time>2014-06-19T15:10:18Z</time>
</trkpt>
<trkpt lat="51.01232147216797" lon="14.64998722076416">
<ele>550.4000244140625</ele>
<time>2014-06-19T15:10:20Z</time>
</trkpt>
<trkpt lat="51.01234817504883" lon="14.650070190429688">
<ele>550.5999755859375</ele>
<time>2014-06-19T15:10:23Z</time>
</trkpt>
<trkpt lat="51.01239776611328" lon="14.650120735168457">
<ele>555.5999755859375</ele>
<time>2014-06-19T15:10:27Z</time>
</trkpt>
<trkpt lat="51.012420654296875" lon="14.650192260742188">
<ele>559.7000122070312</ele>
<time>2014-06-19T15:10:32Z</time>
</trkpt>
<trkpt lat="51.012454986572266" lon="14.650263786315918">
<ele>560.7000122070312</ele>
<time>2014-06-19T15:10:36Z</time>
</trkpt>
<trkpt lat="51.01248550415039" lon="14.650335311889648">
<ele>560.0</ele>
<time>2014-06-19T15:10:39Z</time>
</trkpt>
<trkpt lat="51.012516021728516" lon="14.650391578674316">
<ele>559.7000122070312</ele>
<time>2014-06-19T15:10:41Z</time>
</trkpt>
<trkpt lat="51.01255798339844" lon="14.6504487991333">
<ele>559.5</ele>
<time>2014-06-19T15:10:44Z</time>
</trkpt>
<trkpt lat="51.012603759765625" lon="14.650487899780273">
<ele>559.7000122070312</ele>
<time>2014-06-19T15:10:48Z</time>
</trkpt>
<trkpt lat="51.01266098022461" lon="14.650516510009766">
<ele>560.2000122070312</ele>
<time>2014-06-19T15:10:51Z</time>
</trkpt>
<trkpt lat="51.01272201538086" lon="14.650544166564941">
<ele>563.4000244140625</ele>
<time>2014-06-19T15:10:54Z</time>
</trkpt>
<trkpt lat="51.01279067993164" lon="14.650550842285156">
<ele>565.0</ele>
<time>2014-06-19T15:10:56Z</time>
</trkpt>
<trkpt lat="51.012840270996094" lon="14.65054988861084">
<ele>565.7000122070312</ele>
<time>2014-06-19T15:10:59Z</time>
</trkpt>
<trkpt lat="51.01289749145508" lon="14.65054702758789">
<ele>566.2000122070312</ele>
<time>2014-06-19T15:11:01Z</time>
</trkpt>
<trkpt lat="51.01294708251953" lon="14.650554656982422">
<ele>567.5</ele>
<time>2014-06-19T15:11:03Z</time>
</trkpt>
<trkpt lat="51.01299285888672" lon="14.650559425354004">
<ele>568.0999755859375</ele>
<time>2014-06-19T15:11:05Z</time>
</trkpt>
<trkpt lat="51.0130500793457" lon="14.650543212890625">
<ele>568.7000122070312</ele>
<time>2014-06-19T15:11:07Z</time>
</trkpt>
<trkpt lat="51.013099670410156" lon="14.650522232055664">
<ele>569.9000244140625</ele>
<time>2014-06-19T15:11:12Z</time>
</trkpt>
<trkpt lat="51.01315689086914" lon="14.650533676147461">
<ele>571.0</ele>
<time>2014-06-19T15:11:16Z</time>
</trkpt>
<trkpt lat="51.01321029663086" lon="14.650546073913574">
<ele>570.2999877929688</ele>
<time>2014-06-19T15:11:20Z</time>
</trkpt>
<trkpt lat="51.013267517089844" lon="14.650550842285156">
<ele>567.5999755859375</ele>
<time>2014-06-19T15:11:23Z</time>
</trkpt>
<trkpt lat="51.01331329345703" lon="14.650541305541992">
<ele>567.5</ele>
<time>2014-06-19T15:11:25Z</time>
</trkpt>
<trkpt lat="51.013370513916016" lon="14.650518417358398">
<ele>568.7999877929688</ele>
<time>2014-06-19T15:11:28Z</time>
</trkpt>
<trkpt lat="51.013423919677734" lon="14.650486946105957">
<ele>568.5999755859375</ele>
<time>2014-06-19T15:11:31Z</time>
</trkpt>
<trkpt lat="51.01346969604492" lon="14.65046501159668">
<ele>568.7999877929688</ele>
<time>2014-06-19T15:11:34Z</time>
</trkpt>
<trkpt lat="51.013519287109375" lon="14.650436401367188">
<ele>570.0999755859375</ele>
<time>2014-06-19T15:11:37Z</time>
</trkpt>
<trkpt lat="51.013572692871094" lon="14.65039348602295">
<ele>569.0</ele>
<time>2014-06-19T15:11:42Z</time>
</trkpt>
<trkpt lat="51.01362991333008" lon="14.650351524353027">
<ele>568.7000122070312</ele>
<time>2014-06-19T15:11:45Z</time>
</trkpt>
<trkpt lat="51.01368713378906" lon="14.650307655334473">
<ele>568.7999877929688</ele>
<time>2014-06-19T15:11:48Z</time>
</trkpt>
<trkpt lat="51.01372528076172" lon="14.650266647338867">
<ele>570.2999877929688</ele>
<time>2014-06-19T15:11:50Z</time>
</trkpt>
<trkpt lat="51.01377487182617" lon="14.650227546691895">
<ele>571.5</ele>
<time>2014-06-19T15:11:52Z</time>
</trkpt>
<trkpt lat="51.01381301879883" lon="14.650138854980469">
<ele>570.7999877929688</ele>
<time>2014-06-19T15:11:55Z</time>
</trkpt>
<trkpt lat="51.013851165771484" lon="14.650083541870117">
<ele>570.5999755859375</ele>
<time>2014-06-19T15:11:57Z</time>
</trkpt>
<trkpt lat="51.013912200927734" lon="14.650025367736816">
<ele>570.0</ele>
<time>2014-06-19T15:11:59Z</time>
</trkpt>
<trkpt lat="51.01395797729492" lon="14.649995803833008">
<ele>569.7999877929688</ele>
<time>2014-06-19T15:12:02Z</time>
</trkpt>
<trkpt lat="51.013999938964844" lon="14.649971008300781">
<ele>569.0999755859375</ele>
<time>2014-06-19T15:12:04Z</time>
</trkpt>
<trkpt lat="51.01404571533203" lon="14.649946212768555">
<ele>568.5</ele>
<time>2014-06-19T15:12:06Z</time>
</trkpt>
<trkpt lat="51.01409149169922" lon="14.649934768676758">
<ele>569.4000244140625</ele>
<time>2014-06-19T15:12:08Z</time>
</trkpt>
<trkpt lat="51.014156341552734" lon="14.649916648864746">
<ele>569.9000244140625</ele>
<time>2014-06-19T15:12:11Z</time>
</trkpt>
<trkpt lat="51.01420211791992" lon="14.649885177612305">
<ele>567.0999755859375</ele>
<time>2014-06-19T15:12:15Z</time>
</trkpt>
<trkpt lat="51.014244079589844" lon="14.649840354919434">
<ele>566.7000122070312</ele>
<time>2014-06-19T15:12:18Z</time>
</trkpt>
<trkpt lat="51.01428985595703" lon="14.649798393249512">
<ele>566.7000122070312</ele>
<time>2014-06-19T15:12:22Z</time>
</trkpt>
<trkpt lat="51.01432800292969" lon="14.649762153625488">
<ele>564.5</ele>
<time>2014-06-19T15:12:24Z</time>
</trkpt>
<trkpt lat="51.01437759399414" lon="14.649728775024414">
<ele>562.9000244140625</ele>
<time>2014-06-19T15:12:27Z</time>
</trkpt>
<trkpt lat="51.01442337036133" lon="14.649700164794922">
<ele>560.5</ele>
<time>2014-06-19T15:12:34Z</time>
</trkpt>
<trkpt lat="51.01448059082031" lon="14.649675369262695">
<ele>560.7000122070312</ele>
<time>2014-06-19T15:12:45Z</time>
</trkpt>
<trkpt lat="51.0145378112793" lon="14.649657249450684">
<ele>561.9000244140625</ele>
<time>2014-06-19T15:12:47Z</time>
</trkpt>
<trkpt lat="51.014583587646484" lon="14.649652481079102">
<ele>562.2000122070312</ele>
<time>2014-06-19T15:12:52Z</time>
</trkpt>
<trkpt lat="51.0146484375" lon="14.649620056152344">
<ele>559.7999877929688</ele>
<time>2014-06-19T15:12:58Z</time>
</trkpt>
<trkpt lat="51.014686584472656" lon="14.649579048156738">
<ele>556.5999755859375</ele>
<time>2014-06-19T15:13:00Z</time>
</trkpt>
<trkpt lat="51.01473617553711" lon="14.649521827697754">
<ele>553.7999877929688</ele>
<time>2014-06-19T15:13:02Z</time>
</trkpt>
<trkpt lat="51.014808654785156" lon="14.649466514587402">
<ele>552.5</ele>
<time>2014-06-19T15:13:04Z</time>
</trkpt>
<trkpt lat="51.01484680175781" lon="14.649409294128418">
<ele>550.5999755859375</ele>
<time>2014-06-19T15:13:06Z</time>
</trkpt>
<trkpt lat="51.01488494873047" lon="14.649359703063965">
<ele>549.4000244140625</ele>
<time>2014-06-19T15:13:08Z</time>
</trkpt>
<trkpt lat="51.014923095703125" lon="14.649300575256348">
<ele>547.5999755859375</ele>
<time>2014-06-19T15:13:10Z</time>
</trkpt>
<trkpt lat="51.014957427978516" lon="14.64924144744873">
<ele>543.5</ele>
<time>2014-06-19T15:13:12Z</time>
</trkpt>
<trkpt lat="51.01499938964844" lon="14.649161338806152">
<ele>543.5</ele>
<time>2014-06-19T15:13:15Z</time>
</trkpt>
<trkpt lat="51.01502990722656" lon="14.649102210998535">
<ele>544.2000122070312</ele>
<time>2014-06-19T15:13:18Z</time>
</trkpt>
<trkpt lat="51.01506042480469" lon="14.649027824401855">
<ele>544.5</ele>
<time>2014-06-19T15:13:21Z</time>
</trkpt>
<trkpt lat="51.015079498291016" lon="14.648950576782227">
<ele>544.0999755859375</ele>
<time>2014-06-19T15:13:24Z</time>
</trkpt>
<trkpt lat="51.01511001586914" lon="14.648869514465332">
<ele>544.2999877929688</ele>
<time>2014-06-19T15:13:27Z</time>
</trkpt>
<trkpt lat="51.0151252746582" lon="14.648797035217285">
<ele>543.7000122070312</ele>
<time>2014-06-19T15:13:29Z</time>
</trkpt>
<trkpt lat="51.01514434814453" lon="14.648711204528809">
<ele>543.5</ele>
<time>2014-06-19T15:13:32Z</time>
</trkpt>
<trkpt lat="51.01517868041992" lon="14.648653984069824">
<ele>541.5</ele>
<time>2014-06-19T15:13:34Z</time>
</trkpt>
<trkpt lat="51.01520919799805" lon="14.648600578308105">
<ele>539.9000244140625</ele>
<time>2014-06-19T15:13:36Z</time>
</trkpt>
<trkpt lat="51.01524353027344" lon="14.648541450500488">
<ele>539.7999877929688</ele>
<time>2014-06-19T15:13:38Z</time>
</trkpt>
<trkpt lat="51.01527786254883" lon="14.648459434509277">
<ele>538.5</ele>
<time>2014-06-19T15:13:41Z</time>
</trkpt>
<trkpt lat="51.01528549194336" lon="14.648367881774902">
<ele>538.5</ele>
<time>2014-06-19T15:13:44Z</time>
</trkpt>
<trkpt lat="51.015281677246094" lon="14.648279190063477">
<ele>538.9000244140625</ele>
<time>2014-06-19T15:13:51Z</time>
</trkpt>
<trkpt lat="51.01530075073242" lon="14.648210525512695">
<ele>539.2999877929688</ele>
<time>2014-06-19T15:13:52Z</time>
</trkpt>
<trkpt lat="51.015323638916016" lon="14.6481351852417">
<ele>538.5</ele>
<time>2014-06-19T15:13:55Z</time>
</trkpt>
<trkpt lat="51.01533889770508" lon="14.648055076599121">
<ele>538.5</ele>
<time>2014-06-19T15:13:57Z</time>
</trkpt>
<trkpt lat="51.01533889770508" lon="14.647966384887695">
<ele>537.0999755859375</ele>
<time>2014-06-19T15:13:59Z</time>
</trkpt>
<trkpt lat="51.01533126831055" lon="14.647878646850586">
<ele>538.2999877929688</ele>
<time>2014-06-19T15:14:01Z</time>
</trkpt>
<trkpt lat="51.01531219482422" lon="14.647802352905273">
<ele>537.0999755859375</ele>
<time>2014-06-19T15:14:03Z</time>
</trkpt>
<trkpt lat="51.01529312133789" lon="14.647730827331543">
<ele>536.0</ele>
<time>2014-06-19T15:14:05Z</time>
</trkpt>
<trkpt lat="51.015262603759766" lon="14.64765453338623">
<ele>532.2999877929688</ele>
<time>2014-06-19T15:14:07Z</time>
</trkpt>
<trkpt lat="51.015235900878906" lon="14.647590637207031">
<ele>531.5999755859375</ele>
<time>2014-06-19T15:14:09Z</time>
</trkpt>
<trkpt lat="51.01520919799805" lon="14.647528648376465">
<ele>529.0</ele>
<time>2014-06-19T15:14:11Z</time>
</trkpt>
<trkpt lat="51.01519012451172" lon="14.647459030151367">
<ele>527.0999755859375</ele>
<time>2014-06-19T15:14:12Z</time>
</trkpt>
<trkpt lat="51.01516342163086" lon="14.647374153137207">
<ele>524.7000122070312</ele>
<time>2014-06-19T15:14:16Z</time>
</trkpt>
<trkpt lat="51.015167236328125" lon="14.647289276123047">
<ele>523.2000122070312</ele>
<time>2014-06-19T15:14:19Z</time>
</trkpt>
<trkpt lat="51.015174865722656" lon="14.647205352783203">
<ele>523.2000122070312</ele>
<time>2014-06-19T15:14:23Z</time>
</trkpt>
<trkpt lat="51.01516342163086" lon="14.647112846374512">
<ele>519.5999755859375</ele>
<time>2014-06-19T15:14:26Z</time>
</trkpt>
<trkpt lat="51.01515579223633" lon="14.647043228149414">
<ele>518.2000122070312</ele>
<time>2014-06-19T15:14:28Z</time>
</trkpt>
<trkpt lat="51.0151481628418" lon="14.646960258483887">
<ele>517.0</ele>
<time>2014-06-19T15:14:30Z</time>
</trkpt>
<trkpt lat="51.01515579223633" lon="14.646862983703613">
<ele>514.7000122070312</ele>
<time>2014-06-19T15:14:35Z</time>
</trkpt>
<trkpt lat="51.015159606933594" lon="14.646767616271973">
<ele>514.5999755859375</ele>
<time>2014-06-19T15:14:38Z</time>
</trkpt>
<trkpt lat="51.0151481628418" lon="14.646688461303711">
<ele>513.0999755859375</ele>
<time>2014-06-19T15:14:41Z</time>
</trkpt>
<trkpt lat="51.01513671875" lon="14.646602630615234">
<ele>512.7999877929688</ele>
<time>2014-06-19T15:14:44Z</time>
</trkpt>
<trkpt lat="51.01511001586914" lon="14.646517753601074">
<ele>512.0999755859375</ele>
<time>2014-06-19T15:14:47Z</time>
</trkpt>
<trkpt lat="51.01508331298828" lon="14.646435737609863">
<ele>511.3999938964844</ele>
<time>2014-06-19T15:14:50Z</time>
</trkpt>
<trkpt lat="51.01507568359375" lon="14.646350860595703">
<ele>511.29998779296875</ele>
<time>2014-06-19T15:14:53Z</time>
</trkpt>
<trkpt lat="51.015071868896484" lon="14.646272659301758">
<ele>511.8999938964844</ele>
<time>2014-06-19T15:14:55Z</time>
</trkpt>
<trkpt lat="51.01506423950195" lon="14.646196365356445">
<ele>511.0</ele>
<time>2014-06-19T15:14:57Z</time>
</trkpt>
<trkpt lat="51.01504898071289" lon="14.646102905273438">
<ele>511.8999938964844</ele>
<time>2014-06-19T15:15:00Z</time>
</trkpt>
<trkpt lat="51.01502227783203" lon="14.646014213562012">
<ele>510.5</ele>
<time>2014-06-19T15:15:03Z</time>
</trkpt>
<trkpt lat="51.01499938964844" lon="14.645943641662598">
<ele>510.5</ele>
<time>2014-06-19T15:15:05Z</time>
</trkpt>
<trkpt lat="51.01496887207031" lon="14.645878791809082">
<ele>511.20001220703125</ele>
<time>2014-06-19T15:15:07Z</time>
</trkpt>
<trkpt lat="51.014923095703125" lon="14.645833969116211">
<ele>512.9000244140625</ele>
<time>2014-06-19T15:15:09Z</time>
</trkpt>
<trkpt lat="51.01487350463867" lon="14.64579963684082">
<ele>515.7000122070312</ele>
<time>2014-06-19T15:15:14Z</time>
</trkpt>
<trkpt lat="51.01482009887695" lon="14.645779609680176">
<ele>517.2000122070312</ele>
<time>2014-06-19T15:15:20Z</time>
</trkpt>
<trkpt lat="51.014774322509766" lon="14.64578628540039">
<ele>516.2999877929688</ele>
<time>2014-06-19T15:15:23Z</time>
</trkpt>
<trkpt lat="51.01472473144531" lon="14.645788192749023">
<ele>514.0</ele>
<time>2014-06-19T15:15:25Z</time>
</trkpt>
<trkpt lat="51.01466751098633" lon="14.645787239074707">
<ele>512.7999877929688</ele>
<time>2014-06-19T15:15:27Z</time>
</trkpt>
<trkpt lat="51.014610290527344" lon="14.64578628540039">
<ele>512.0999755859375</ele>
<time>2014-06-19T15:15:29Z</time>
</trkpt>
<trkpt lat="51.014549255371094" lon="14.645774841308594">
<ele>511.70001220703125</ele>
<time>2014-06-19T15:15:31Z</time>
</trkpt>
<trkpt lat="51.014495849609375" lon="14.645764350891113">
<ele>512.9000244140625</ele>
<time>2014-06-19T15:15:33Z</time>
</trkpt>
<trkpt lat="51.01444625854492" lon="14.64575481414795">
<ele>513.2999877929688</ele>
<time>2014-06-19T15:15:35Z</time>
</trkpt>
<trkpt lat="51.01438522338867" lon="14.645771026611328">
<ele>514.9000244140625</ele>
<time>2014-06-19T15:15:38Z</time>
</trkpt>
<trkpt lat="51.01433181762695" lon="14.645779609680176">
<ele>517.2000122070312</ele>
<time>2014-06-19T15:15:43Z</time>
</trkpt>
<trkpt lat="51.014286041259766" lon="14.64576530456543">
<ele>518.7999877929688</ele>
<time>2014-06-19T15:15:48Z</time>
</trkpt>
<trkpt lat="51.01424026489258" lon="14.645751953125">
<ele>521.9000244140625</ele>
<time>2014-06-19T15:15:51Z</time>
</trkpt>
<trkpt lat="51.014198303222656" lon="14.645729064941406">
<ele>521.9000244140625</ele>
<time>2014-06-19T15:15:53Z</time>
</trkpt>
<trkpt lat="51.01414489746094" lon="14.64570140838623">
<ele>522.2000122070312</ele>
<time>2014-06-19T15:15:55Z</time>
</trkpt>
<trkpt lat="51.01408386230469" lon="14.645676612854004">
<ele>521.5999755859375</ele>
<time>2014-06-19T15:15:57Z</time>
</trkpt>
<trkpt lat="51.014034271240234" lon="14.645646095275879">
<ele>521.2000122070312</ele>
<time>2014-06-19T15:15:59Z</time>
</trkpt>
<trkpt lat="51.01397705078125" lon="14.645623207092285">
<ele>519.0</ele>
<time>2014-06-19T15:16:01Z</time>
</trkpt>
<trkpt lat="51.013919830322266" lon="14.645612716674805">
<ele>517.7000122070312</ele>
<time>2014-06-19T15:16:03Z</time>
</trkpt>
<trkpt lat="51.01387023925781" lon="14.64559268951416">
<ele>517.5</ele>
<time>2014-06-19T15:16:05Z</time>
</trkpt>
<trkpt lat="51.01380920410156" lon="14.645552635192871">
<ele>516.7999877929688</ele>
<time>2014-06-19T15:16:08Z</time>
</trkpt>
<trkpt lat="51.013771057128906" lon="14.64551067352295">
<ele>516.4000244140625</ele>
<time>2014-06-19T15:16:10Z</time>
</trkpt>
<trkpt lat="51.01372528076172" lon="14.645454406738281">
<ele>514.7999877929688</ele>
<time>2014-06-19T15:16:12Z</time>
</trkpt>
<trkpt lat="51.01367950439453" lon="14.645405769348145">
<ele>513.7000122070312</ele>
<time>2014-06-19T15:16:14Z</time>
</trkpt>
<trkpt lat="51.01362609863281" lon="14.645370483398438">
<ele>512.2999877929688</ele>
<time>2014-06-19T15:16:16Z</time>
</trkpt>
<trkpt lat="51.0135612487793" lon="14.645349502563477">
<ele>510.5</ele>
<time>2014-06-19T15:16:18Z</time>
</trkpt>
<trkpt lat="51.01349639892578" lon="14.64532470703125">
<ele>509.70001220703125</ele>
<time>2014-06-19T15:16:20Z</time>
</trkpt>
<trkpt lat="51.013423919677734" lon="14.645295143127441">
<ele>508.5</ele>
<time>2014-06-19T15:16:22Z</time>
</trkpt>
<trkpt lat="51.013343811035156" lon="14.645257949829102">
<ele>507.0</ele>
<time>2014-06-19T15:16:24Z</time>
</trkpt>
<trkpt lat="51.01327896118164" lon="14.645222663879395">
<ele>506.6000061035156</ele>
<time>2014-06-19T15:16:26Z</time>
</trkpt>
<trkpt lat="51.01324462890625" lon="14.64516830444336">
<ele>506.8999938964844</ele>
<time>2014-06-19T15:16:28Z</time>
</trkpt>
<trkpt lat="51.0131950378418" lon="14.645127296447754">
<ele>507.1000061035156</ele>
<time>2014-06-19T15:16:32Z</time>
</trkpt>
<trkpt lat="51.013145446777344" lon="14.645145416259766">
<ele>506.8999938964844</ele>
<time>2014-06-19T15:16:36Z</time>
</trkpt>
<trkpt lat="51.01310348510742" lon="14.645176887512207">
<ele>507.0</ele>
<time>2014-06-19T15:16:40Z</time>
</trkpt>
<trkpt lat="51.013038635253906" lon="14.64519214630127">
<ele>507.0</ele>
<time>2014-06-19T15:16:42Z</time>
</trkpt>
<trkpt lat="51.01298904418945" lon="14.645203590393066">
<ele>507.6000061035156</ele>
<time>2014-06-19T15:16:45Z</time>
</trkpt>
<trkpt lat="51.012939453125" lon="14.645214080810547">
<ele>507.3999938964844</ele>
<time>2014-06-19T15:16:47Z</time>
</trkpt>
<trkpt lat="51.01288604736328" lon="14.645210266113281">
<ele>507.29998779296875</ele>
<time>2014-06-19T15:16:50Z</time>
</trkpt>
<trkpt lat="51.012840270996094" lon="14.645241737365723">
<ele>508.1000061035156</ele>
<time>2014-06-19T15:16:56Z</time>
</trkpt>
<trkpt lat="51.01278305053711" lon="14.645263671875">
<ele>507.5</ele>
<time>2014-06-19T15:17:00Z</time>
</trkpt>
<trkpt lat="51.012699127197266" lon="14.645269393920898">
<ele>507.3999938964844</ele>
<time>2014-06-19T15:17:03Z</time>
</trkpt>
<trkpt lat="51.01261520385742" lon="14.64529037475586">
<ele>506.70001220703125</ele>
<time>2014-06-19T15:17:05Z</time>
</trkpt>
<trkpt lat="51.01253890991211" lon="14.645312309265137">
<ele>506.3999938964844</ele>
<time>2014-06-19T15:17:07Z</time>
</trkpt>
<trkpt lat="51.012481689453125" lon="14.645317077636719">
<ele>506.6000061035156</ele>
<time>2014-06-19T15:17:08Z</time>
</trkpt>
<trkpt lat="51.01243209838867" lon="14.645312309265137">
<ele>507.1000061035156</ele>
<time>2014-06-19T15:17:11Z</time>
</trkpt>
<trkpt lat="51.01236343383789" lon="14.64529037475586">
<ele>507.5</ele>
<time>2014-06-19T15:17:14Z</time>
</trkpt>
<trkpt lat="51.0123176574707" lon="14.645293235778809">
<ele>507.20001220703125</ele>
<time>2014-06-19T15:17:16Z</time>
</trkpt>
<trkpt lat="51.01226806640625" lon="14.645291328430176">
<ele>508.0</ele>
<time>2014-06-19T15:17:18Z</time>
</trkpt>
<trkpt lat="51.0122184753418" lon="14.645297050476074">
<ele>508.3999938964844</ele>
<time>2014-06-19T15:17:20Z</time>
</trkpt>
<trkpt lat="51.01216125488281" lon="14.645329475402832">
<ele>507.8999938964844</ele>
<time>2014-06-19T15:17:22Z</time>
</trkpt>
<trkpt lat="51.0120964050293" lon="14.64536190032959">
<ele>508.5</ele>
<time>2014-06-19T15:17:24Z</time>
</trkpt>
<trkpt lat="51.01203536987305" lon="14.645393371582031">
<ele>509.79998779296875</ele>
<time>2014-06-19T15:17:26Z</time>
</trkpt>
<trkpt lat="51.01198959350586" lon="14.645414352416992">
<ele>511.29998779296875</ele>
<time>2014-06-19T15:17:28Z</time>
</trkpt>
<trkpt lat="51.01194381713867" lon="14.645428657531738">
<ele>511.1000061035156</ele>
<time>2014-06-19T15:17:30Z</time>
</trkpt>
<trkpt lat="51.01189422607422" lon="14.645427703857422">
<ele>512.2000122070312</ele>
<time>2014-06-19T15:17:32Z</time>
</trkpt>
<trkpt lat="51.01184844970703" lon="14.645427703857422">
<ele>511.29998779296875</ele>
<time>2014-06-19T15:17:34Z</time>
</trkpt>
<trkpt lat="51.01179122924805" lon="14.64540958404541">
<ele>511.5</ele>
<time>2014-06-19T15:17:36Z</time>
</trkpt>
<trkpt lat="51.011722564697266" lon="14.6453857421875">
<ele>513.2000122070312</ele>
<time>2014-06-19T15:17:40Z</time>
</trkpt>
<trkpt lat="51.01166915893555" lon="14.645386695861816">
<ele>514.0</ele>
<time>2014-06-19T15:17:42Z</time>
</trkpt>
<trkpt lat="51.0116081237793" lon="14.645401000976562">
<ele>513.9000244140625</ele>
<time>2014-06-19T15:17:44Z</time>
</trkpt>
<trkpt lat="51.01155471801758" lon="14.645421028137207">
<ele>514.4000244140625</ele>
<time>2014-06-19T15:17:46Z</time>
</trkpt>
<trkpt lat="51.01150894165039" lon="14.64543342590332">
<ele>514.7999877929688</ele>
<time>2014-06-19T15:17:48Z</time>
</trkpt>
<trkpt lat="51.0114631652832" lon="14.645444869995117">
<ele>513.7999877929688</ele>
<time>2014-06-19T15:17:50Z</time>
</trkpt>
<trkpt lat="51.01140213012695" lon="14.645462036132812">
<ele>514.2000122070312</ele>
<time>2014-06-19T15:17:52Z</time>
</trkpt>
<trkpt lat="51.0113525390625" lon="14.645489692687988">
<ele>514.5999755859375</ele>
<time>2014-06-19T15:17:55Z</time>
</trkpt>
<trkpt lat="51.01129913330078" lon="14.645501136779785">
<ele>513.0</ele>
<time>2014-06-19T15:17:57Z</time>
</trkpt>
<trkpt lat="51.011234283447266" lon="14.645508766174316">
<ele>511.8999938964844</ele>
<time>2014-06-19T15:17:59Z</time>
</trkpt>
<trkpt lat="51.01116943359375" lon="14.645515441894531">
<ele>510.70001220703125</ele>
<time>2014-06-19T15:18:01Z</time>
</trkpt>
<trkpt lat="51.0110969543457" lon="14.645533561706543">
<ele>509.8999938964844</ele>
<time>2014-06-19T15:18:03Z</time>
</trkpt>
<trkpt lat="51.01101303100586" lon="14.645549774169922">
<ele>508.1000061035156</ele>
<time>2014-06-19T15:18:05Z</time>
</trkpt>
<trkpt lat="51.01091766357422" lon="14.64555835723877">
<ele>506.5</ele>
<time>2014-06-19T15:18:07Z</time>
</trkpt>
<trkpt lat="51.010868072509766" lon="14.64555835723877">
<ele>505.8999938964844</ele>
<time>2014-06-19T15:18:08Z</time>
</trkpt>
<trkpt lat="51.01082229614258" lon="14.645554542541504">
<ele>505.6000061035156</ele>
<time>2014-06-19T15:18:09Z</time>
</trkpt>
<trkpt lat="51.0107307434082" lon="14.645529747009277">
<ele>504.8999938964844</ele>
<time>2014-06-19T15:18:11Z</time>
</trkpt>
<trkpt lat="51.010684967041016" lon="14.645519256591797">
<ele>504.5</ele>
<time>2014-06-19T15:18:12Z</time>
</trkpt>
<trkpt lat="51.01063919067383" lon="14.645503997802734">
<ele>504.3999938964844</ele>
<time>2014-06-19T15:18:13Z</time>
</trkpt>
<trkpt lat="51.01055908203125" lon="14.645488739013672">
<ele>504.1000061035156</ele>
<time>2014-06-19T15:18:15Z</time>
</trkpt>
<trkpt lat="51.010494232177734" lon="14.645472526550293">
<ele>504.1000061035156</ele>
<time>2014-06-19T15:18:17Z</time>
</trkpt>
<trkpt lat="51.010440826416016" lon="14.645462989807129">
<ele>504.20001220703125</ele>
<time>2014-06-19T15:18:19Z</time>
</trkpt>
<trkpt lat="51.01039123535156" lon="14.645487785339355">
<ele>504.29998779296875</ele>
<time>2014-06-19T15:18:22Z</time>
</trkpt>
<trkpt lat="51.01034927368164" lon="14.645523071289062">
<ele>504.3999938964844</ele>
<time>2014-06-19T15:18:25Z</time>
</trkpt>
<trkpt lat="51.010292053222656" lon="14.645547866821289">
<ele>504.70001220703125</ele>
<time>2014-06-19T15:18:29Z</time>
</trkpt>
<trkpt lat="51.0102424621582" lon="14.645590782165527">
<ele>506.0</ele>
<time>2014-06-19T15:18:32Z</time>
</trkpt>
<trkpt lat="51.01017379760742" lon="14.645635604858398">
<ele>505.20001220703125</ele>
<time>2014-06-19T15:18:35Z</time>
</trkpt>
<trkpt lat="51.01007843017578" lon="14.645646095275879">
<ele>504.6000061035156</ele>
<time>2014-06-19T15:18:37Z</time>
</trkpt>
<trkpt lat="51.01002883911133" lon="14.645642280578613">
<ele>504.20001220703125</ele>
<time>2014-06-19T15:18:38Z</time>
</trkpt>
<trkpt lat="51.00996780395508" lon="14.645639419555664">
<ele>504.1000061035156</ele>
<time>2014-06-19T15:18:39Z</time>
</trkpt>
<trkpt lat="51.00991439819336" lon="14.64564037322998">
<ele>504.0</ele>
<time>2014-06-19T15:18:40Z</time>
</trkpt>
<trkpt lat="51.00986862182617" lon="14.64564037322998">
<ele>504.20001220703125</ele>
<time>2014-06-19T15:18:41Z</time>
</trkpt>
<trkpt lat="51.00981903076172" lon="14.645644187927246">
<ele>504.1000061035156</ele>
<time>2014-06-19T15:18:41Z</time>
</trkpt>
<trkpt lat="51.00975036621094" lon="14.645648956298828">
<ele>504.1000061035156</ele>
<time>2014-06-19T15:18:44Z</time>
</trkpt>
<trkpt lat="51.00969314575195" lon="14.645659446716309">
<ele>504.0</ele>
<time>2014-06-19T15:18:46Z</time>
</trkpt>
<trkpt lat="51.00965118408203" lon="14.64568042755127">
<ele>504.20001220703125</ele>
<time>2014-06-19T15:18:48Z</time>
</trkpt>
<trkpt lat="51.009586334228516" lon="14.64565658569336">
<ele>504.70001220703125</ele>
<time>2014-06-19T15:19:00Z</time>
</trkpt>
<trkpt lat="51.009544372558594" lon="14.64561939239502">
<ele>506.79998779296875</ele>
<time>2014-06-19T15:19:02Z</time>
</trkpt>
<trkpt lat="51.009498596191406" lon="14.645576477050781">
<ele>512.5</ele>
<time>2014-06-19T15:19:03Z</time>
</trkpt>
<trkpt lat="51.00944137573242" lon="14.645536422729492">
<ele>515.2000122070312</ele>
<time>2014-06-19T15:19:06Z</time>
</trkpt>
<trkpt lat="51.00939178466797" lon="14.645495414733887">
<ele>517.2000122070312</ele>
<time>2014-06-19T15:19:08Z</time>
</trkpt>
<trkpt lat="51.00933074951172" lon="14.6454439163208">
<ele>520.5</ele>
<time>2014-06-19T15:19:10Z</time>
</trkpt>
<trkpt lat="51.00927734375" lon="14.645392417907715">
<ele>520.2000122070312</ele>
<time>2014-06-19T15:19:12Z</time>
</trkpt>
<trkpt lat="51.00922775268555" lon="14.645332336425781">
<ele>518.5</ele>
<time>2014-06-19T15:19:14Z</time>
</trkpt>
<trkpt lat="51.009178161621094" lon="14.645267486572266">
<ele>517.2000122070312</ele>
<time>2014-06-19T15:19:16Z</time>
</trkpt>
<trkpt lat="51.009132385253906" lon="14.645198822021484">
<ele>517.5</ele>
<time>2014-06-19T15:19:18Z</time>
</trkpt>
<trkpt lat="51.00909423828125" lon="14.645124435424805">
<ele>518.2999877929688</ele>
<time>2014-06-19T15:19:20Z</time>
</trkpt>
<trkpt lat="51.009056091308594" lon="14.645052909851074">
<ele>518.2999877929688</ele>
<time>2014-06-19T15:19:22Z</time>
</trkpt>
<trkpt lat="51.0090217590332" lon="14.644993782043457">
<ele>517.9000244140625</ele>
<time>2014-06-19T15:19:24Z</time>
</trkpt>
<trkpt lat="51.00898742675781" lon="14.644936561584473">
<ele>516.7999877929688</ele>
<time>2014-06-19T15:19:26Z</time>
</trkpt>
<trkpt lat="51.00895690917969" lon="14.644869804382324">
<ele>516.5</ele>
<time>2014-06-19T15:19:28Z</time>
</trkpt>
<trkpt lat="51.0089225769043" lon="14.644755363464355">
<ele>515.0999755859375</ele>
<time>2014-06-19T15:19:30Z</time>
</trkpt>
<trkpt lat="51.008888244628906" lon="14.644636154174805">
<ele>513.2999877929688</ele>
<time>2014-06-19T15:19:32Z</time>
</trkpt>
<trkpt lat="51.008853912353516" lon="14.64451789855957">
<ele>511.29998779296875</ele>
<time>2014-06-19T15:19:34Z</time>
</trkpt>
<trkpt lat="51.00880813598633" lon="14.644433975219727">
<ele>510.29998779296875</ele>
<time>2014-06-19T15:19:36Z</time>
</trkpt>
<trkpt lat="51.008758544921875" lon="14.64436149597168">
<ele>509.6000061035156</ele>
<time>2014-06-19T15:19:38Z</time>
</trkpt>
<trkpt lat="51.008705139160156" lon="14.64431095123291">
<ele>507.79998779296875</ele>
<time>2014-06-19T15:19:40Z</time>
</trkpt>
<trkpt lat="51.00864791870117" lon="14.644257545471191">
<ele>506.20001220703125</ele>
<time>2014-06-19T15:19:42Z</time>
</trkpt>
<trkpt lat="51.00859069824219" lon="14.64421558380127">
<ele>504.5</ele>
<time>2014-06-19T15:19:44Z</time>
</trkpt>
<trkpt lat="51.00853729248047" lon="14.644177436828613">
<ele>504.20001220703125</ele>
<time>2014-06-19T15:19:46Z</time>
</trkpt>
<trkpt lat="51.008487701416016" lon="14.644150733947754">
<ele>503.3999938964844</ele>
<time>2014-06-19T15:19:48Z</time>
</trkpt>
<trkpt lat="51.00843048095703" lon="14.644109725952148">
<ele>502.5</ele>
<time>2014-06-19T15:19:50Z</time>
</trkpt>
<trkpt lat="51.00837707519531" lon="14.644064903259277">
<ele>501.29998779296875</ele>
<time>2014-06-19T15:19:52Z</time>
</trkpt>
<trkpt lat="51.008304595947266" lon="14.644030570983887">
<ele>499.6000061035156</ele>
<time>2014-06-19T15:19:54Z</time>
</trkpt>
<trkpt lat="51.00825119018555" lon="14.644018173217773">
<ele>498.79998779296875</ele>
<time>2014-06-19T15:19:56Z</time>
</trkpt>
<trkpt lat="51.00820541381836" lon="14.64400577545166">
<ele>497.79998779296875</ele>
<time>2014-06-19T15:19:58Z</time>
</trkpt>
<trkpt lat="51.008155822753906" lon="14.643976211547852">
<ele>496.29998779296875</ele>
<time>2014-06-19T15:20:02Z</time>
</trkpt>
<trkpt lat="51.00811004638672" lon="14.643940925598145">
<ele>496.0</ele>
<time>2014-06-19T15:20:06Z</time>
</trkpt>
<trkpt lat="51.00804901123047" lon="14.643922805786133">
<ele>496.1000061035156</ele>
<time>2014-06-19T15:20:09Z</time>
</trkpt>
<trkpt lat="51.007999420166016" lon="14.64391803741455">
<ele>496.70001220703125</ele>
<time>2014-06-19T15:20:11Z</time>
</trkpt>
<trkpt lat="51.007938385009766" lon="14.643909454345703">
<ele>496.6000061035156</ele>
<time>2014-06-19T15:20:13Z</time>
</trkpt>
<trkpt lat="51.00786590576172" lon="14.643891334533691">
<ele>496.70001220703125</ele>
<time>2014-06-19T15:20:14Z</time>
</trkpt>
<trkpt lat="51.00779724121094" lon="14.643881797790527">
<ele>496.29998779296875</ele>
<time>2014-06-19T15:20:17Z</time>
</trkpt>
<trkpt lat="51.00774002075195" lon="14.643885612487793">
<ele>497.0</ele>
<time>2014-06-19T15:20:19Z</time>
</trkpt>
<trkpt lat="51.0076904296875" lon="14.64390754699707">
<ele>496.70001220703125</ele>
<time>2014-06-19T15:20:21Z</time>
</trkpt>
<trkpt lat="51.00764465332031" lon="14.64394760131836">
<ele>497.20001220703125</ele>
<time>2014-06-19T15:20:23Z</time>
</trkpt>
<trkpt lat="51.007591247558594" lon="14.64397144317627">
<ele>496.0</ele>
<time>2014-06-19T15:20:25Z</time>
</trkpt>
<trkpt lat="51.007511138916016" lon="14.643989562988281">
<ele>493.1000061035156</ele>
<time>2014-06-19T15:20:27Z</time>
</trkpt>
<trkpt lat="51.0074348449707" lon="14.643986701965332">
<ele>492.79998779296875</ele>
<time>2014-06-19T15:20:29Z</time>
</trkpt>
<trkpt lat="51.00736999511719" lon="14.643967628479004">
<ele>493.20001220703125</ele>
<time>2014-06-19T15:20:31Z</time>
</trkpt>
<trkpt lat="51.0073127746582" lon="14.643941879272461">
<ele>493.29998779296875</ele>
<time>2014-06-19T15:20:33Z</time>
</trkpt>
<trkpt lat="51.00727081298828" lon="14.643892288208008">
<ele>494.6000061035156</ele>
<time>2014-06-19T15:20:35Z</time>
</trkpt>
<trkpt lat="51.00723648071289" lon="14.643841743469238">
<ele>494.8999938964844</ele>
<time>2014-06-19T15:20:36Z</time>
</trkpt>
<trkpt lat="51.007198333740234" lon="14.64377498626709">
<ele>493.6000061035156</ele>
<time>2014-06-19T15:20:39Z</time>
</trkpt>
<trkpt lat="51.007171630859375" lon="14.643707275390625">
<ele>493.20001220703125</ele>
<time>2014-06-19T15:20:41Z</time>
</trkpt>
<trkpt lat="51.00714111328125" lon="14.643632888793945">
<ele>490.70001220703125</ele>
<time>2014-06-19T15:20:42Z</time>
</trkpt>
<trkpt lat="51.007118225097656" lon="14.643563270568848">
<ele>490.29998779296875</ele>
<time>2014-06-19T15:20:45Z</time>
</trkpt>
<trkpt lat="51.0070915222168" lon="14.643471717834473">
<ele>489.6000061035156</ele>
<time>2014-06-19T15:20:47Z</time>
</trkpt>
<trkpt lat="51.007080078125" lon="14.643383979797363">
<ele>489.1000061035156</ele>
<time>2014-06-19T15:20:50Z</time>
</trkpt>
</trkseg>
</trk>
</gpx>
